Observation data for Dozier on 04/23/2019      Previous  Date  Next       Current Mesonet Observations  Soil Data  Daily Summary Page  Observations in Plain Language
KDO1 230500Z 06002KT 14/14 A301 RMK A01 T01420142  RH  100%=      5-min Rain = 0
KDO1 230501Z 06003KT 14/14 A301 RMK A01 T01420142  RH  100%=      5-min Rain = 0
KDO1 230502Z 06003KT 14/14 A301 RMK A01 T01420142  RH  100%=      5-min Rain = 0
KDO1 230503Z 04004KT 14/14 A3009 RMK A01 T01410141  RH  100%=      5-min Rain = 0.01
KDO1 230504Z 05006KT 14/14 A3009 RMK A01 T01420142  RH  100%=      5-min Rain = 0
KDO1 230505Z 05007KT 14/14 A3009 RMK A01 T01410141  RH  100%=      5-min Rain = 0
KDO1 230506Z 04007KT 14/14 A3009 RMK A01 T01410141  RH  100%=      5-min Rain = 0.01
KDO1 230507Z 05007KT 14/14 A3009 RMK A01 T01410141  RH  100%=      5-min Rain = 0
KDO1 230508Z 05008KT 14/14 A3009 RMK A01 T01410141  RH  100%=      5-min Rain = 0
KDO1 230509Z 06008KT 14/14 A3009 RMK A01 T01410141  RH  100%=      5-min Rain = 0.01
KDO1 230510Z 07008KT 14/14 A3009 RMK A01 T01410141  RH  100%=      5-min Rain = 0
KDO1 230511Z 07007KT 14/14 A3009 RMK A01 T01400141  RH  100%=      5-min Rain = 0
KDO1 230512Z 07008KT 14/14 A3009 RMK A01 T01410141  RH  100%=      5-min Rain = 0
KDO1 230513Z 07007KT 14/14 A3009 RMK A01 T01410141  RH  100%=      5-min Rain = 0
KDO1 230514Z 08008KT 14/14 A3009 RMK A01 T01400140  RH  100%=      5-min Rain = 0.01
KDO1 230515Z 07008KT 14/14 A3009 RMK A01 T01400140  RH  100%=      5-min Rain = 0
KDO1 230516Z 07007KT 14/14 A3009 RMK A01 T01400140  RH  100%=      5-min Rain = 0
KDO1 230517Z 08005KT 14/14 A3009 RMK A01 T01400140  RH  100%=      5-min Rain = 0
KDO1 230518Z 08005KT 14/14 A3009 RMK A01 T01400140  RH  100%=      5-min Rain = 0.01
KDO1 230519Z 07005KT 14/14 A301 RMK A01 T01400140  RH  100%=      5-min Rain = 0
KDO1 230520Z 06003KT 14/14 A301 RMK A01 T01400140  RH  100%=      5-min Rain = 0
KDO1 230521Z 33001KT 14/14 A301 RMK A01 T01400140  RH  100%=      5-min Rain = 0
KDO1 230522Z 33002KT 14/14 A301 RMK A01 T01400140  RH  100%=      5-min Rain = 0.01
KDO1 230523Z 28005KT 14/14 A301 RMK A01 T01400140  RH  100%=      5-min Rain = 0
KDO1 230524Z 29007KT 14/14 A301 RMK A01 T01400140  RH  100%=      5-min Rain = 0.01
KDO1 230525Z 29009KT 14/14 A301 RMK A01 T01400140  RH  100%=      5-min Rain = 0
KDO1 230526Z 29009KT 14/14 A301 RMK A01 T01400140  RH  100%=      5-min Rain = 0.01
KDO1 230527Z 30008KT 14/14 A301 RMK A01 T01400140  RH  100%=      5-min Rain = 0
KDO1 230528Z 30008KT 14/14 A301 RMK A01 T01400140  RH  100%=      5-min Rain = 0.01
KDO1 230529Z 30009KT 14/14 A301 RMK A01 T01390139  RH  100%=      5-min Rain = 0
KDO1 230530Z 29008KT 14/14 A301 RMK A01 T01380138  RH  100%=      5-min Rain = 0.01
KDO1 230531Z 30011KT 14/14 A301 RMK A01 T01380138  RH  100%=      5-min Rain = 0
KDO1 230532Z 29013G19KT 14/14 A3009 RMK A01 T01380138  RH  100%=      5-min Rain = 0.02
KDO1 230533Z 30015G22KT 14/14 A3009 RMK A01 T01380138  RH  100%=      5-min Rain = 0.01
KDO1 230534Z 31021G28KT 14/14 A3009 RMK A01 T01380138  RH  100%=      5-min Rain = 0
KDO1 230535Z 30016KT 14/14 A301 RMK A01 T01390139  RH  100%=      5-min Rain = 0.01
KDO1 230536Z 31013G22KT 14/14 A3009 RMK A01 T01400140  RH  100%=      5-min Rain = 0.01
KDO1 230537Z 32015G20KT 14/14 A3009 RMK A01 T01400139  RH  099%=      5-min Rain = 0.01
KDO1 230538Z 34010KT 14/14 A3009 RMK A01 T01420138  RH  097%=      5-min Rain = 0
KDO1 230539Z 34011KT 14/14 A3009 RMK A01 T01430137  RH  096%=      5-min Rain = 0.01
KDO1 230540Z 35014KT 14/14 A3008 RMK A01 T01430138  RH  097%=      5-min Rain = 0
KDO1 230541Z 00014G19KT 14/14 A3008 RMK A01 T01430138  RH  097%=      5-min Rain = 0
KDO1 230542Z 01012KT 14/14 A3008 RMK A01 T01430137  RH  096%=      5-min Rain = 0
KDO1 230543Z 01012G18KT 14/14 A3008 RMK A01 T01440135  RH  095%=      5-min Rain = 0
KDO1 230544Z 02012KT 15/13 A3008 RMK A01 T01450134  RH  093%=      5-min Rain = 0
KDO1 230545Z 03011KT 15/13 A3008 RMK A01 T01460134  RH  092%=      5-min Rain = 0
KDO1 230546Z 02009KT 15/13 A3008 RMK A01 T01470134  RH  092%=      5-min Rain = 0.01
KDO1 230547Z 00009G16KT 15/14 A3008 RMK A01 T01470136  RH  093%=      5-min Rain = 0
KDO1 230548Z 01006KT 15/14 A3008 RMK A01 T01450137  RH  095%=      5-min Rain = 0
KDO1 230549Z 00007KT 14/14 A3009 RMK A01 T01430138  RH  097%=      5-min Rain = 0
KDO1 230550Z 01005KT 14/14 A3008 RMK A01 T01420139  RH  098%=      5-min Rain = 0
KDO1 230551Z 35011KT 14/14 A3008 RMK A01 T01410139  RH  099%=      5-min Rain = 0
KDO1 230552Z 35010KT 14/14 A3008 RMK A01 T01410139  RH  099%=      5-min Rain = 0
KDO1 230553Z 35009KT 14/14 A3009 RMK A01 T01410138  RH  098%=      5-min Rain = 0
KDO1 230554Z 34010KT 14/14 A3009 RMK A01 T01410138  RH  098%=      5-min Rain = 0
KDO1 230555Z 32012KT 14/14 A3009 RMK A01 T01410138  RH  098%=      5-min Rain = 0
KDO1 230556Z 32011KT 14/14 A3009 RMK A01 T01400138  RH  099%=      5-min Rain = 0
KDO1 230557Z 32011KT 14/14 A3009 RMK A01 T01400139  RH  099%=      5-min Rain = 0
KDO1 230558Z 32009KT 14/14 A3009 RMK A01 T01400139  RH  100%=      5-min Rain = 0
KDO1 230559Z 32009KT 14/14 A3009 RMK A01 T01390139  RH  100%=      5-min Rain = 0
KDO1 230600Z 33008KT 14/14 A3009 RMK A01 T01390139  RH  100%=      5-min Rain = 0
KDO1 230601Z 32006KT 14/14 A3009 RMK A01 T01380139  RH  100%=      5-min Rain = 0
KDO1 230602Z 34007G12KT 14/14 A3009 RMK A01 T01380138  RH  100%=      5-min Rain = 0
KDO1 230603Z 34006KT 14/14 A3009 RMK A01 T01380138  RH  100%=      5-min Rain = 0
KDO1 230604Z 35008KT 14/14 A3009 RMK A01 T01380138  RH  100%=      5-min Rain = 0
KDO1 230605Z 35009KT 14/14 A3009 RMK A01 T01380138  RH  100%=      5-min Rain = 0.01
KDO1 230606Z 35006KT 14/14 A3009 RMK A01 T01380138  RH  100%=      5-min Rain = 0
KDO1 230607Z 35007KT 14/14 A3009 RMK A01 T01380138  RH  100%=      5-min Rain = 0
KDO1 230608Z 36008KT 14/14 A3009 RMK A01 T01380138  RH  100%=      5-min Rain = 0
KDO1 230609Z 36006KT 14/14 A3009 RMK A01 T01370138  RH  100%=      5-min Rain = 0
KDO1 230610Z 01006KT 14/14 A3009 RMK A01 T01380138  RH  100%=      5-min Rain = 0
KDO1 230611Z 01007KT 14/14 A3009 RMK A01 T01370137  RH  100%=      5-min Rain = 0.01
KDO1 230612Z 02006KT 14/14 A3009 RMK A01 T01370137  RH  100%=      5-min Rain = 0
KDO1 230613Z 01008KT 14/14 A3009 RMK A01 T01370137  RH  100%=      5-min Rain = 0
KDO1 230614Z 00006KT 14/14 A3009 RMK A01 T01370137  RH  100%=      5-min Rain = 0.01
KDO1 230615Z 00009KT 14/14 A3009 RMK A01 T01370137  RH  100%=      5-min Rain = 0
KDO1 230616Z 01008KT 14/14 A3009 RMK A01 T01370137  RH  100%=      5-min Rain = 0
KDO1 230617Z 00008KT 14/14 A3008 RMK A01 T01370137  RH  100%=      5-min Rain = 0.01
KDO1 230618Z 01008KT 14/14 A3008 RMK A01 T01370137  RH  100%=      5-min Rain = 0
KDO1 230619Z 00009KT 14/14 A3008 RMK A01 T01370137  RH  100%=      5-min Rain = 0
KDO1 230620Z 01010KT 14/14 A3007 RMK A01 T01370137  RH  100%=      5-min Rain = 0
KDO1 230621Z 01010KT 14/14 A3007 RMK A01 T01370137  RH  100%=      5-min Rain = 0.01
KDO1 230622Z 01010KT 14/14 A3007 RMK A01 T01360136  RH  100%=      5-min Rain = 0
KDO1 230623Z 01009KT 14/14 A3007 RMK A01 T01360136  RH  100%=      5-min Rain = 0
KDO1 230624Z 01009KT 14/14 A3007 RMK A01 T01370137  RH  100%=      5-min Rain = 0.01
KDO1 230625Z 01010KT 14/14 A3007 RMK A01 T01360136  RH  100%=      5-min Rain = 0
KDO1 230626Z 36010KT 14/14 A3007 RMK A01 T01360136  RH  100%=      5-min Rain = 0
KDO1 230627Z 00010KT 14/14 A3007 RMK A01 T01360136  RH  100%=      5-min Rain = 0.01
KDO1 230628Z 00010KT 14/14 A3007 RMK A01 T01360136  RH  100%=      5-min Rain = 0
KDO1 230629Z 00009KT 14/14 A3007 RMK A01 T01360136  RH  100%=      5-min Rain = 0
KDO1 230630Z 01007KT 14/14 A3007 RMK A01 T01360136  RH  100%=      5-min Rain = 0
KDO1 230631Z 00009KT 14/14 A3007 RMK A01 T01360136  RH  100%=      5-min Rain = 0
KDO1 230632Z 36007KT 14/14 A3007 RMK A01 T01360136  RH  100%=      5-min Rain = 0
KDO1 230633Z 00009KT 14/14 A3007 RMK A01 T01360136  RH  100%=      5-min Rain = 0
KDO1 230634Z 00009KT 14/14 A3007 RMK A01 T01360136  RH  100%=      5-min Rain = 0.01
KDO1 230635Z 00009KT 14/14 A3007 RMK A01 T01360136  RH  100%=      5-min Rain = 0
KDO1 230636Z 00009KT 14/14 A3007 RMK A01 T01360136  RH  100%=      5-min Rain = 0
KDO1 230637Z 36008KT 14/14 A3007 RMK A01 T01360136  RH  100%=      5-min Rain = 0
KDO1 230638Z 01010KT 14/14 A3007 RMK A01 T01360136  RH  100%=      5-min Rain = 0
KDO1 230639Z 00010KT 14/14 A3007 RMK A01 T01360136  RH  100%=      5-min Rain = 0
KDO1 230640Z 36011KT 14/14 A3007 RMK A01 T01360136  RH  100%=      5-min Rain = 0
KDO1 230641Z 36011KT 14/14 A3007 RMK A01 T01360136  RH  100%=      5-min Rain = 0
KDO1 230642Z 00010KT 14/14 A3007 RMK A01 T01360136  RH  100%=      5-min Rain = 0
KDO1 230643Z 00010G15KT 14/14 A3007 RMK A01 T01360137  RH  100%=      5-min Rain = 0
KDO1 230644Z 36010G17KT 14/14 A3007 RMK A01 T01370137  RH  100%=      5-min Rain = 0
KDO1 230645Z 01010KT 14/14 A3007 RMK A01 T01370137  RH  100%=      5-min Rain = 0
KDO1 230646Z 01011KT 14/14 A3007 RMK A01 T01360136  RH  100%=      5-min Rain = 0
KDO1 230647Z 00010KT 14/14 A3006 RMK A01 T01370137  RH  100%=      5-min Rain = 0
KDO1 230648Z 00009KT 14/14 A3006 RMK A01 T01360136  RH  100%=      5-min Rain = 0
KDO1 230649Z 00009KT 14/14 A3006 RMK A01 T01360136  RH  100%=      5-min Rain = 0
KDO1 230650Z 01010KT 14/14 A3006 RMK A01 T01360136  RH  100%=      5-min Rain = 0
KDO1 230651Z 01011KT 14/14 A3006 RMK A01 T01360136  RH  100%=      5-min Rain = 0
KDO1 230652Z 01011KT 14/14 A3005 RMK A01 T01360136  RH  100%=      5-min Rain = 0
KDO1 230653Z 01012G17KT 14/14 A3005 RMK A01 T01360136  RH  100%=      5-min Rain = 0
KDO1 230654Z 01011KT 14/14 A3005 RMK A01 T01360136  RH  100%=      5-min Rain = 0
KDO1 230655Z 01010KT 14/14 A3005 RMK A01 T01360136  RH  100%=      5-min Rain = 0
KDO1 230656Z 01010KT 14/14 A3005 RMK A01 T01360136  RH  100%=      5-min Rain = 0
KDO1 230657Z 01011KT 14/14 A3005 RMK A01 T01360136  RH  100%=      5-min Rain = 0
KDO1 230658Z 01012KT 14/14 A3006 RMK A01 T01360136  RH  100%=      5-min Rain = 0
KDO1 230659Z 02010KT 14/14 A3006 RMK A01 T01360136  RH  100%=      5-min Rain = 0
KDO1 230700Z 02010KT 14/14 A3006 RMK A01 T01360136  RH  100%=      5-min Rain = 0
KDO1 230701Z 01011KT 14/14 A3006 RMK A01 T01360136  RH  100%=      5-min Rain = 0
KDO1 230702Z 02011KT 14/14 A3006 RMK A01 T01360136  RH  100%=      5-min Rain = 0
KDO1 230703Z 01012KT 14/14 A3006 RMK A01 T01360136  RH  100%=      5-min Rain = 0
KDO1 230704Z 02008KT 14/14 A3006 RMK A01 T01360136  RH  100%=      5-min Rain = 0
KDO1 230705Z 02008KT 14/14 A3006 RMK A01 T01360136  RH  100%=      5-min Rain = 0
KDO1 230706Z 02009KT 14/14 A3006 RMK A01 T01360136  RH  100%=      5-min Rain = 0
KDO1 230707Z 03008KT 14/14 A3006 RMK A01 T01360136  RH  100%=      5-min Rain = 0
KDO1 230708Z 03007KT 14/14 A3006 RMK A01 T01360136  RH  100%=      5-min Rain = 0
KDO1 230709Z 02010KT 14/14 A3006 RMK A01 T01360136  RH  100%=      5-min Rain = 0
KDO1 230710Z 02008KT 14/14 A3006 RMK A01 T01360136  RH  100%=      5-min Rain = 0
KDO1 230711Z 02008KT 14/14 A3006 RMK A01 T01360136  RH  100%=      5-min Rain = 0
KDO1 230712Z 02009KT 14/14 A3006 RMK A01 T01360136  RH  100%=      5-min Rain = 0
KDO1 230713Z 02012KT 14/14 A3006 RMK A01 T01360136  RH  100%=      5-min Rain = 0
KDO1 230714Z 02012G17KT 14/14 A3005 RMK A01 T01360136  RH  100%=      5-min Rain = 0
KDO1 230715Z 02012KT 14/14 A3005 RMK A01 T01360136  RH  100%=      5-min Rain = 0
KDO1 230716Z 02010KT 14/14 A3005 RMK A01 T01370137  RH  100%=      5-min Rain = 0
KDO1 230717Z 02010KT 14/14 A3005 RMK A01 T01370137  RH  100%=      5-min Rain = 0
KDO1 230718Z 02010KT 14/14 A3005 RMK A01 T01370137  RH  100%=      5-min Rain = 0
KDO1 230719Z 02011KT 14/14 A3005 RMK A01 T01370137  RH  100%=      5-min Rain = 0
KDO1 230720Z 02015KT 14/14 A3004 RMK A01 T01370137  RH  100%=      5-min Rain = 0
KDO1 230721Z 01012KT 14/14 A3004 RMK A01 T01370137  RH  100%=      5-min Rain = 0
KDO1 230722Z 02014G19KT 14/14 A3004 RMK A01 T01370137  RH  100%=      5-min Rain = 0
KDO1 230723Z 02012KT 14/14 A3004 RMK A01 T01370137  RH  100%=      5-min Rain = 0
KDO1 230724Z 02013KT 14/14 A3004 RMK A01 T01370137  RH  100%=      5-min Rain = 0
KDO1 230725Z 02012KT 14/14 A3004 RMK A01 T01370137  RH  100%=      5-min Rain = 0
KDO1 230726Z 02013KT 14/14 A3004 RMK A01 T01370137  RH  100%=      5-min Rain = 0
KDO1 230727Z 02013KT 14/14 A3004 RMK A01 T01370137  RH  100%=      5-min Rain = 0
KDO1 230728Z 03011G17KT 14/14 A3004 RMK A01 T01370137  RH  100%=      5-min Rain = 0
KDO1 230729Z 02008KT 14/14 A3004 RMK A01 T01370137  RH  100%=      5-min Rain = 0
KDO1 230730Z 02010KT 14/14 A3005 RMK A01 T01370137  RH  100%=      5-min Rain = 0
KDO1 230731Z 02011KT 14/14 A3005 RMK A01 T01370137  RH  100%=      5-min Rain = 0
KDO1 230732Z 03009KT 14/14 A3005 RMK A01 T01370137  RH  100%=      5-min Rain = 0
KDO1 230733Z 02010KT 14/14 A3005 RMK A01 T01380138  RH  100%=      5-min Rain = 0
KDO1 230734Z 02010KT 14/14 A3004 RMK A01 T01370137  RH  100%=      5-min Rain = 0
KDO1 230735Z 02009G14KT 14/14 A3004 RMK A01 T01370137  RH  100%=      5-min Rain = 0
KDO1 230736Z 02012KT 14/14 A3004 RMK A01 T01370137  RH  100%=      5-min Rain = 0
KDO1 230737Z 02010KT 14/14 A3004 RMK A01 T01370137  RH  100%=      5-min Rain = 0
KDO1 230738Z 02012KT 14/14 A3004 RMK A01 T01380138  RH  100%=      5-min Rain = 0
KDO1 230739Z 02009KT 14/14 A3004 RMK A01 T01370137  RH  100%=      5-min Rain = 0
KDO1 230740Z 03010G15KT 14/14 A3004 RMK A01 T01380138  RH  100%=      5-min Rain = 0
KDO1 230741Z 03010KT 14/14 A3004 RMK A01 T01370137  RH  100%=      5-min Rain = 0
KDO1 230742Z 03009KT 14/14 A3004 RMK A01 T01370137  RH  100%=      5-min Rain = 0
KDO1 230743Z 03010KT 14/14 A3004 RMK A01 T01370137  RH  100%=      5-min Rain = 0
KDO1 230744Z 03012KT 14/14 A3004 RMK A01 T01370137  RH  100%=      5-min Rain = 0
KDO1 230745Z 03010KT 14/14 A3004 RMK A01 T01370137  RH  100%=      5-min Rain = 0
KDO1 230746Z 04010KT 14/14 A3004 RMK A01 T01370137  RH  100%=      5-min Rain = 0
KDO1 230747Z 04010KT 14/14 A3004 RMK A01 T01380138  RH  100%=      5-min Rain = 0
KDO1 230748Z 04010KT 14/14 A3004 RMK A01 T01380138  RH  100%=      5-min Rain = 0
KDO1 230749Z 04010KT 14/14 A3004 RMK A01 T01380138  RH  100%=      5-min Rain = 0
KDO1 230750Z 04014KT 14/14 A3004 RMK A01 T01380138  RH  100%=      5-min Rain = 0
KDO1 230751Z 04015KT 14/14 A3004 RMK A01 T01380138  RH  100%=      5-min Rain = 0
KDO1 230752Z 04010G15KT 14/14 A3004 RMK A01 T01390139  RH  100%=      5-min Rain = 0
KDO1 230753Z 04011KT 14/14 A3004 RMK A01 T01390139  RH  100%=      5-min Rain = 0
KDO1 230754Z 04013KT 14/14 A3003 RMK A01 T01390139  RH  100%=      5-min Rain = 0
KDO1 230755Z 04013KT 14/14 A3003 RMK A01 T01390139  RH  100%=      5-min Rain = 0
KDO1 230756Z 05013KT 14/14 A3003 RMK A01 T01390139  RH  100%=      5-min Rain = 0
KDO1 230757Z 05013KT 14/14 A3003 RMK A01 T01390139  RH  100%=      5-min Rain = 0
KDO1 230758Z 04015KT 14/14 A3003 RMK A01 T01390139  RH  100%=      5-min Rain = 0
KDO1 230759Z 05013KT 14/14 A3003 RMK A01 T01390139  RH  100%=      5-min Rain = 0
KDO1 230800Z 05014KT 14/14 A3003 RMK A01 T01390139  RH  100%=      5-min Rain = 0
KDO1 230801Z 05013KT 14/14 A3002 RMK A01 T01390139  RH  100%=      5-min Rain = 0
KDO1 230802Z 05012KT 14/14 A3002 RMK A01 T01390139  RH  100%=      5-min Rain = 0
KDO1 230803Z 05012KT 14/14 A3003 RMK A01 T01390139  RH  100%=      5-min Rain = 0
KDO1 230804Z 05014KT 14/14 A3002 RMK A01 T01390139  RH  100%=      5-min Rain = 0
KDO1 230805Z 05012KT 14/14 A3002 RMK A01 T01390139  RH  100%=      5-min Rain = 0
KDO1 230806Z 05013G18KT 14/14 A3002 RMK A01 T01390139  RH  100%=      5-min Rain = 0
KDO1 230807Z 04013G18KT 14/14 A3002 RMK A01 T01390139  RH  100%=      5-min Rain = 0
KDO1 230808Z 05015KT 14/14 A3002 RMK A01 T01390139  RH  100%=      5-min Rain = 0
KDO1 230809Z 05011G16KT 14/14 A3002 RMK A01 T01390139  RH  100%=      5-min Rain = 0
KDO1 230810Z 04012KT 14/14 A3002 RMK A01 T01390139  RH  100%=      5-min Rain = 0
KDO1 230811Z 05012KT 14/14 A3002 RMK A01 T01390140  RH  100%=      5-min Rain = 0
KDO1 230812Z 05012KT 14/14 A3002 RMK A01 T01390139  RH  100%=      5-min Rain = 0
KDO1 230813Z 05013G18KT 14/14 A3002 RMK A01 T01390139  RH  100%=      5-min Rain = 0
KDO1 230814Z 04012KT 14/14 A3002 RMK A01 T01390139  RH  100%=      5-min Rain = 0
KDO1 230815Z 05012KT 14/14 A3002 RMK A01 T01390139  RH  100%=      5-min Rain = 0
KDO1 230816Z 05010KT 14/14 A3002 RMK A01 T01390139  RH  100%=      5-min Rain = 0
KDO1 230817Z 04012KT 14/14 A3003 RMK A01 T01390139  RH  100%=      5-min Rain = 0
KDO1 230818Z 04012KT 14/14 A3003 RMK A01 T01390139  RH  100%=      5-min Rain = 0
KDO1 230819Z 04011KT 14/14 A3003 RMK A01 T01390139  RH  100%=      5-min Rain = 0
KDO1 230820Z 04013G18KT 14/14 A3003 RMK A01 T01390139  RH  100%=      5-min Rain = 0
KDO1 230821Z 04009KT 14/14 A3003 RMK A01 T01390139  RH  100%=      5-min Rain = 0
KDO1 230822Z 03008KT 14/14 A3003 RMK A01 T01390139  RH  100%=      5-min Rain = 0
KDO1 230823Z 05008KT 14/14 A3003 RMK A01 T01390139  RH  100%=      5-min Rain = 0
KDO1 230824Z 05008KT 14/14 A3003 RMK A01 T01390139  RH  100%=      5-min Rain = 0
KDO1 230825Z 04007KT 14/14 A3003 RMK A01 T01390139  RH  100%=      5-min Rain = 0
KDO1 230826Z 04007KT 14/14 A3003 RMK A01 T01390139  RH  100%=      5-min Rain = 0
KDO1 230827Z 04012G17KT 14/14 A3003 RMK A01 T01390139  RH  100%=      5-min Rain = 0
KDO1 230828Z 04012KT 14/14 A3003 RMK A01 T01390139  RH  100%=      5-min Rain = 0
KDO1 230829Z 04014KT 14/14 A3003 RMK A01 T01390139  RH  100%=      5-min Rain = 0
KDO1 230830Z 04008KT 14/14 A3003 RMK A01 T01390139  RH  100%=      5-min Rain = 0
KDO1 230831Z 05010KT 14/14 A3003 RMK A01 T01390139  RH  100%=      5-min Rain = 0
KDO1 230832Z 04010G15KT 14/14 A3003 RMK A01 T01390139  RH  100%=      5-min Rain = 0
KDO1 230833Z 04013KT 14/14 A3003 RMK A01 T01390139  RH  100%=      5-min Rain = 0
KDO1 230834Z 04011KT 14/14 A3003 RMK A01 T01390139  RH  100%=      5-min Rain = 0
KDO1 230835Z 04008G15KT 14/14 A3003 RMK A01 T01390139  RH  100%=      5-min Rain = 0
KDO1 230836Z 05012G18KT 14/14 A3003 RMK A01 T01390139  RH  100%=      5-min Rain = 0
KDO1 230837Z 04009KT 14/14 A3003 RMK A01 T01390139  RH  100%=      5-min Rain = 0
KDO1 230838Z 04008KT 14/14 A3004 RMK A01 T01390139  RH  100%=      5-min Rain = 0
KDO1 230839Z 04009KT 14/14 A3004 RMK A01 T01390139  RH  100%=      5-min Rain = 0
KDO1 230840Z 04008KT 14/14 A3003 RMK A01 T01390139  RH  100%=      5-min Rain = 0
KDO1 230841Z 04010KT 14/14 A3004 RMK A01 T01390139  RH  100%=      5-min Rain = 0.02
KDO1 230842Z 04010KT 14/14 A3003 RMK A01 T01390139  RH  100%=      5-min Rain = 0
KDO1 230843Z 05009KT 14/14 A3003 RMK A01 T01390139  RH  100%=      5-min Rain = 0
KDO1 230844Z 04010KT 14/14 A3004 RMK A01 T01380138  RH  100%=      5-min Rain = 0
KDO1 230845Z 04010KT 14/14 A3004 RMK A01 T01390139  RH  100%=      5-min Rain = 0
KDO1 230846Z 04008KT 14/14 A3003 RMK A01 T01380138  RH  100%=      5-min Rain = 0
KDO1 230847Z 05009KT 14/14 A3004 RMK A01 T01380138  RH  100%=      5-min Rain = 0.01
KDO1 230848Z 04010KT 14/14 A3004 RMK A01 T01380138  RH  100%=      5-min Rain = 0
KDO1 230849Z 04009KT 14/14 A3003 RMK A01 T01380138  RH  100%=      5-min Rain = 0
KDO1 230850Z 04009KT 14/14 A3003 RMK A01 T01380138  RH  100%=      5-min Rain = 0
KDO1 230851Z 05009KT 14/14 A3003 RMK A01 T01380138  RH  100%=      5-min Rain = 0
KDO1 230852Z 05009KT 14/14 A3003 RMK A01 T01380138  RH  100%=      5-min Rain = 0
KDO1 230853Z 04011KT 14/14 A3003 RMK A01 T01380138  RH  100%=      5-min Rain = 0
KDO1 230854Z 04010KT 14/14 A3003 RMK A01 T01380138  RH  100%=      5-min Rain = 0
KDO1 230855Z 04009KT 14/14 A3003 RMK A01 T01380138  RH  100%=      5-min Rain = 0
KDO1 230856Z 05009KT 14/14 A3003 RMK A01 T01380138  RH  100%=      5-min Rain = 0
KDO1 230857Z 04013KT 14/14 A3003 RMK A01 T01380138  RH  100%=      5-min Rain = 0
KDO1 230858Z 04010KT 14/14 A3004 RMK A01 T01380138  RH  100%=      5-min Rain = 0
KDO1 230859Z 04010KT 14/14 A3004 RMK A01 T01380138  RH  100%=      5-min Rain = 0
KDO1 230900Z 04009KT 14/14 A3004 RMK A01 T01380138  RH  100%=      5-min Rain = 0
KDO1 230901Z 04010KT 14/14 A3003 RMK A01 T01380138  RH  100%=      5-min Rain = 0
KDO1 230902Z 04009KT 14/14 A3003 RMK A01 T01380138  RH  100%=      5-min Rain = 0
KDO1 230903Z 04008KT 14/14 A3003 RMK A01 T01380138  RH  100%=      5-min Rain = 0.01
KDO1 230904Z 05010KT 14/14 A3003 RMK A01 T01380138  RH  100%=      5-min Rain = 0
KDO1 230905Z 04010KT 14/14 A3003 RMK A01 T01380138  RH  100%=      5-min Rain = 0
KDO1 230906Z 04013KT 14/14 A3003 RMK A01 T01380138  RH  100%=      5-min Rain = 0
KDO1 230907Z 05008KT 14/14 A3003 RMK A01 T01380138  RH  100%=      5-min Rain = 0
KDO1 230908Z 05010KT 14/14 A3003 RMK A01 T01380138  RH  100%=      5-min Rain = 0
KDO1 230909Z 04010KT 14/14 A3003 RMK A01 T01380138  RH  100%=      5-min Rain = 0
KDO1 230910Z 04009KT 14/14 A3003 RMK A01 T01380138  RH  100%=      5-min Rain = 0
KDO1 230911Z 04007KT 14/14 A3003 RMK A01 T01380138  RH  100%=      5-min Rain = 0
KDO1 230912Z 04009KT 14/14 A3003 RMK A01 T01380138  RH  100%=      5-min Rain = 0
KDO1 230913Z 04010KT 14/14 A3003 RMK A01 T01380138  RH  100%=      5-min Rain = 0
KDO1 230914Z 03008KT 14/14 A3003 RMK A01 T01380138  RH  100%=      5-min Rain = 0
KDO1 230915Z 03008KT 14/14 A3003 RMK A01 T01370137  RH  100%=      5-min Rain = 0
KDO1 230916Z 04008KT 14/14 A3003 RMK A01 T01370137  RH  100%=      5-min Rain = 0.01
KDO1 230917Z 04008KT 14/14 A3003 RMK A01 T01370137  RH  100%=      5-min Rain = 0
KDO1 230918Z 04009G14KT 14/14 A3003 RMK A01 T01370137  RH  100%=      5-min Rain = 0
KDO1 230919Z 04009KT 14/14 A3003 RMK A01 T01370137  RH  100%=      5-min Rain = 0
KDO1 230920Z 03008KT 14/14 A3003 RMK A01 T01370138  RH  100%=      5-min Rain = 0
KDO1 230921Z 04010KT 14/14 A3003 RMK A01 T01380138  RH  100%=      5-min Rain = 0
KDO1 230922Z 04011KT 14/14 A3003 RMK A01 T01370137  RH  100%=      5-min Rain = 0
KDO1 230923Z 03008KT 14/14 A3002 RMK A01 T01370137  RH  100%=      5-min Rain = 0
KDO1 230924Z 03008KT 14/14 A3002 RMK A01 T01370137  RH  100%=      5-min Rain = 0
KDO1 230925Z 03011KT 14/14 A3002 RMK A01 T01370137  RH  100%=      5-min Rain = 0
KDO1 230926Z 04010KT 14/14 A3002 RMK A01 T01370137  RH  100%=      5-min Rain = 0
KDO1 230927Z 04013KT 14/14 A3001 RMK A01 T01370137  RH  100%=      5-min Rain = 0
KDO1 230928Z 04015KT 14/14 A3001 RMK A01 T01380138  RH  100%=      5-min Rain = 0.01
KDO1 230929Z 04012KT 14/14 A3001 RMK A01 T01370137  RH  100%=      5-min Rain = 0
KDO1 230930Z 04015KT 14/14 A30 RMK A01 T01370137  RH  100%=      5-min Rain = 0
KDO1 230931Z 05015G20KT 14/14 A30 RMK A01 T01370137  RH  100%=      5-min Rain = 0
KDO1 230932Z 04014KT 14/14 A30 RMK A01 T01370137  RH  100%=      5-min Rain = 0
KDO1 230933Z 05016KT 14/14 A30 RMK A01 T01370137  RH  100%=      5-min Rain = 0
KDO1 230934Z 04018KT 14/14 A2999 RMK A01 T01380138  RH  100%=      5-min Rain = 0
KDO1 230935Z 04018KT 14/14 A2999 RMK A01 T01370137  RH  100%=      5-min Rain = 0
KDO1 230936Z 05017KT 14/14 A2998 RMK A01 T01370137  RH  100%=      5-min Rain = 0
KDO1 230937Z 04016KT 14/14 A2998 RMK A01 T01380138  RH  100%=      5-min Rain = 0
KDO1 230938Z 04018G23KT 14/14 A2998 RMK A01 T01380138  RH  100%=      5-min Rain = 0.01
KDO1 230939Z 04018G24KT 14/14 A2997 RMK A01 T01380138  RH  100%=      5-min Rain = 0
KDO1 230940Z 04013G19KT 14/14 A2997 RMK A01 T01370137  RH  100%=      5-min Rain = 0
KDO1 230941Z 04016KT 14/14 A2997 RMK A01 T01370137  RH  100%=      5-min Rain = 0.01
KDO1 230942Z 04018KT 14/14 A2997 RMK A01 T01370137  RH  100%=      5-min Rain = 0
KDO1 230943Z 03017G22KT 14/14 A2997 RMK A01 T01370137  RH  100%=      5-min Rain = 0
KDO1 230944Z 03015KT 14/14 A2997 RMK A01 T01380138  RH  100%=      5-min Rain = 0
KDO1 230945Z 03016KT 14/14 A2997 RMK A01 T01370137  RH  100%=      5-min Rain = 0
KDO1 230946Z 03014KT 14/14 A2997 RMK A01 T01370137  RH  100%=      5-min Rain = 0
KDO1 230947Z 03014G19KT 14/14 A2997 RMK A01 T01370137  RH  100%=      5-min Rain = 0
KDO1 230948Z 02012KT 14/14 A2998 RMK A01 T01370137  RH  100%=      5-min Rain = 0
KDO1 230949Z 02013KT 14/14 A2998 RMK A01 T01380138  RH  100%=      5-min Rain = 0
KDO1 230950Z 02012G17KT 14/14 A2998 RMK A01 T01370137  RH  100%=      5-min Rain = 0
KDO1 230951Z 02012G17KT 14/14 A2998 RMK A01 T01370137  RH  100%=      5-min Rain = 0
KDO1 230952Z 02013KT 14/14 A2999 RMK A01 T01370137  RH  100%=      5-min Rain = 0
KDO1 230953Z 02011KT 14/14 A2999 RMK A01 T01370137  RH  100%=      5-min Rain = 0
KDO1 230954Z 03011KT 14/14 A2999 RMK A01 T01380138  RH  100%=      5-min Rain = 0
KDO1 230955Z 03012KT 14/14 A30 RMK A01 T01380138  RH  100%=      5-min Rain = 0
KDO1 230956Z 03012G17KT 14/14 A30 RMK A01 T01380138  RH  100%=      5-min Rain = 0
KDO1 230957Z 03010G16KT 14/14 A30 RMK A01 T01380138  RH  100%=      5-min Rain = 0
KDO1 230958Z 03009KT 14/14 A30 RMK A01 T01380138  RH  100%=      5-min Rain = 0
KDO1 230959Z 03008KT 14/14 A30 RMK A01 T01380138  RH  100%=      5-min Rain = 0
KDO1 231000Z 03008KT 14/14 A3001 RMK A01 T01380139  RH  100%=      5-min Rain = 0
KDO1 231001Z 03007KT 14/14 A3001 RMK A01 T01380138  RH  100%=      5-min Rain = 0
KDO1 231002Z 03008KT 14/14 A3001 RMK A01 T01380138  RH  100%=      5-min Rain = 0
KDO1 231003Z 03009KT 14/14 A3001 RMK A01 T01380138  RH  100%=      5-min Rain = 0
KDO1 231004Z 03008KT 14/14 A3001 RMK A01 T01380138  RH  100%=      5-min Rain = 0
KDO1 231005Z 02007G12KT 14/14 A3001 RMK A01 T01380138  RH  100%=      5-min Rain = 0
KDO1 231006Z 04010KT 14/14 A3001 RMK A01 T01380138  RH  100%=      5-min Rain = 0
KDO1 231007Z 03009KT 14/14 A3001 RMK A01 T01390139  RH  100%=      5-min Rain = 0
KDO1 231008Z 03009KT 14/14 A3001 RMK A01 T01390139  RH  100%=      5-min Rain = 0
KDO1 231009Z 02008KT 14/14 A3002 RMK A01 T01390139  RH  100%=      5-min Rain = 0
KDO1 231010Z 03010KT 14/14 A3002 RMK A01 T01390139  RH  100%=      5-min Rain = 0
KDO1 231011Z 03008KT 14/14 A3002 RMK A01 T01390139  RH  100%=      5-min Rain = 0
KDO1 231012Z 03007KT 14/14 A3002 RMK A01 T01390139  RH  100%=      5-min Rain = 0
KDO1 231013Z 03006KT 14/14 A3002 RMK A01 T01390139  RH  100%=      5-min Rain = 0
KDO1 231014Z 02008KT 14/14 A3002 RMK A01 T01390139  RH  100%=      5-min Rain = 0
KDO1 231015Z 04010KT 14/14 A3002 RMK A01 T01390139  RH  100%=      5-min Rain = 0
KDO1 231016Z 03008KT 14/14 A3002 RMK A01 T01390139  RH  100%=      5-min Rain = 0
KDO1 231017Z 03007G12KT 14/14 A3002 RMK A01 T01390139  RH  100%=      5-min Rain = 0
KDO1 231018Z 03006KT 14/14 A3002 RMK A01 T01390139  RH  100%=      5-min Rain = 0
KDO1 231019Z 04008KT 14/14 A3002 RMK A01 T01390139  RH  100%=      5-min Rain = 0
KDO1 231020Z 03008KT 14/14 A3002 RMK A01 T01390139  RH  100%=      5-min Rain = 0
KDO1 231021Z 03008KT 14/14 A3002 RMK A01 T01390139  RH  100%=      5-min Rain = 0
KDO1 231022Z 03006KT 14/14 A3002 RMK A01 T01390139  RH  100%=      5-min Rain = 0
KDO1 231023Z 02007KT 14/14 A3002 RMK A01 T01390139  RH  100%=      5-min Rain = 0
KDO1 231024Z 03008KT 14/14 A3002 RMK A01 T01390139  RH  100%=      5-min Rain = 0
KDO1 231025Z 03008KT 14/14 A3002 RMK A01 T01390139  RH  100%=      5-min Rain = 0
KDO1 231026Z 03010KT 14/14 A3002 RMK A01 T01390139  RH  100%=      5-min Rain = 0
KDO1 231027Z 03011KT 14/14 A3002 RMK A01 T01390139  RH  100%=      5-min Rain = 0
KDO1 231028Z 03011KT 14/14 A3002 RMK A01 T01390139  RH  100%=      5-min Rain = 0
KDO1 231029Z 03009KT 14/14 A3002 RMK A01 T01400140  RH  100%=      5-min Rain = 0
KDO1 231030Z 02008KT 14/14 A3002 RMK A01 T01400140  RH  100%=      5-min Rain = 0
KDO1 231031Z 02007KT 14/14 A3002 RMK A01 T01400140  RH  100%=      5-min Rain = 0
KDO1 231032Z 02009KT 14/14 A3002 RMK A01 T01400140  RH  100%=      5-min Rain = 0
KDO1 231033Z 02008KT 14/14 A3002 RMK A01 T01400140  RH  100%=      5-min Rain = 0
KDO1 231034Z 03008KT 14/14 A3002 RMK A01 T01400140  RH  100%=      5-min Rain = 0
KDO1 231035Z 02010KT 14/14 A3002 RMK A01 T01400140  RH  100%=      5-min Rain = 0
KDO1 231036Z 03008G14KT 14/14 A3002 RMK A01 T01390139  RH  100%=      5-min Rain = 0
KDO1 231037Z 02011KT 14/14 A3003 RMK A01 T01390139  RH  100%=      5-min Rain = 0
KDO1 231038Z 02011KT 14/14 A3003 RMK A01 T01390139  RH  100%=      5-min Rain = 0
KDO1 231039Z 02011KT 14/14 A3002 RMK A01 T01390139  RH  100%=      5-min Rain = 0
KDO1 231040Z 03011G16KT 14/14 A3002 RMK A01 T01390139  RH  100%=      5-min Rain = 0
KDO1 231041Z 03011KT 14/14 A3002 RMK A01 T01390139  RH  100%=      5-min Rain = 0
KDO1 231042Z 02011KT 14/14 A3002 RMK A01 T01390139  RH  100%=      5-min Rain = 0
KDO1 231043Z 03008KT 14/14 A3002 RMK A01 T01390139  RH  100%=      5-min Rain = 0
KDO1 231044Z 03008KT 14/14 A3002 RMK A01 T01390139  RH  100%=      5-min Rain = 0
KDO1 231045Z 03010KT 14/14 A3002 RMK A01 T01380138  RH  100%=      5-min Rain = 0
KDO1 231046Z 03007KT 14/14 A3002 RMK A01 T01380138  RH  100%=      5-min Rain = 0
KDO1 231047Z 03010KT 14/14 A3002 RMK A01 T01380138  RH  100%=      5-min Rain = 0
KDO1 231048Z 04010KT 14/14 A3002 RMK A01 T01380138  RH  100%=      5-min Rain = 0
KDO1 231049Z 03008KT 14/14 A3002 RMK A01 T01380138  RH  100%=      5-min Rain = 0
KDO1 231050Z 03011KT 14/14 A3002 RMK A01 T01380138  RH  100%=      5-min Rain = 0
KDO1 231051Z 03012KT 14/14 A3002 RMK A01 T01380138  RH  100%=      5-min Rain = 0
KDO1 231052Z 02011KT 14/14 A3002 RMK A01 T01380138  RH  100%=      5-min Rain = 0
KDO1 231053Z 03011KT 14/14 A3002 RMK A01 T01380138  RH  100%=      5-min Rain = 0.01
KDO1 231054Z 02010KT 14/14 A3002 RMK A01 T01380138  RH  100%=      5-min Rain = 0
KDO1 231055Z 03008KT 14/14 A3002 RMK A01 T01380138  RH  100%=      5-min Rain = 0
KDO1 231056Z 02008KT 14/14 A3002 RMK A01 T01380138  RH  100%=      5-min Rain = 0
KDO1 231057Z 01009KT 14/14 A3002 RMK A01 T01380138  RH  100%=      5-min Rain = 0
KDO1 231058Z 01009KT 14/14 A3002 RMK A01 T01380138  RH  100%=      5-min Rain = 0
KDO1 231059Z 02010KT 14/14 A3002 RMK A01 T01380138  RH  100%=      5-min Rain = 0
KDO1 231100Z 02008KT 14/14 A3002 RMK A01 T01380138  RH  100%=      5-min Rain = 0
KDO1 231101Z 02010KT 14/14 A3002 RMK A01 T01380138  RH  100%=      5-min Rain = 0
KDO1 231102Z 02010KT 14/14 A3002 RMK A01 T01380138  RH  100%=      5-min Rain = 0
KDO1 231103Z 02009KT 14/14 A3002 RMK A01 T01380138  RH  100%=      5-min Rain = 0
KDO1 231104Z 02011KT 14/14 A3002 RMK A01 T01380138  RH  100%=      5-min Rain = 0
KDO1 231105Z 02010KT 14/14 A3002 RMK A01 T01370137  RH  100%=      5-min Rain = 0
KDO1 231106Z 02010KT 14/14 A3002 RMK A01 T01370137  RH  100%=      5-min Rain = 0
KDO1 231107Z 03011KT 14/14 A3002 RMK A01 T01370137  RH  100%=      5-min Rain = 0
KDO1 231108Z 02011KT 14/14 A3002 RMK A01 T01370137  RH  100%=      5-min Rain = 0
KDO1 231109Z 02012G19KT 14/14 A3002 RMK A01 T01370137  RH  100%=      5-min Rain = 0
KDO1 231110Z 03011G16KT 14/14 A3002 RMK A01 T01370137  RH  100%=      5-min Rain = 0
KDO1 231111Z 03009KT 14/14 A3003 RMK A01 T01370137  RH  100%=      5-min Rain = 0
KDO1 231112Z 02012KT 14/14 A3003 RMK A01 T01370137  RH  100%=      5-min Rain = 0
KDO1 231113Z 03010KT 14/14 A3003 RMK A01 T01370137  RH  100%=      5-min Rain = 0
KDO1 231114Z 03010KT 14/14 A3003 RMK A01 T01370137  RH  100%=      5-min Rain = 0
KDO1 231115Z 02011G16KT 14/14 A3003 RMK A01 T01370137  RH  100%=      5-min Rain = 0
KDO1 231116Z 02011KT 14/14 A3004 RMK A01 T01370137  RH  100%=      5-min Rain = 0
KDO1 231117Z 03007KT 14/14 A3004 RMK A01 T01370137  RH  100%=      5-min Rain = 0
KDO1 231118Z 03008KT 14/14 A3004 RMK A01 T01370137  RH  100%=      5-min Rain = 0
KDO1 231119Z 04006KT 14/14 A3004 RMK A01 T01370137  RH  100%=      5-min Rain = 0
KDO1 231120Z 04005KT 14/14 A3004 RMK A01 T01370137  RH  100%=      5-min Rain = 0
KDO1 231121Z 04009KT 14/14 A3005 RMK A01 T01370137  RH  100%=      5-min Rain = 0
KDO1 231122Z 04007KT 14/14 A3005 RMK A01 T01370137  RH  100%=      5-min Rain = 0
KDO1 231123Z 03006KT 14/14 A3005 RMK A01 T01370137  RH  100%=      5-min Rain = 0
KDO1 231124Z 04008KT 14/14 A3005 RMK A01 T01370137  RH  100%=      5-min Rain = 0
KDO1 231125Z 04008KT 14/14 A3005 RMK A01 T01370137  RH  100%=      5-min Rain = 0
KDO1 231126Z 04007KT 14/14 A3005 RMK A01 T01370137  RH  100%=      5-min Rain = 0
KDO1 231127Z 04009KT 14/14 A3005 RMK A01 T01370137  RH  100%=      5-min Rain = 0
KDO1 231128Z 03008KT 14/14 A3005 RMK A01 T01370137  RH  100%=      5-min Rain = 0
KDO1 231129Z 03008KT 14/14 A3005 RMK A01 T01380138  RH  100%=      5-min Rain = 0
KDO1 231130Z 04010KT 14/14 A3005 RMK A01 T01370137  RH  100%=      5-min Rain = 0
KDO1 231131Z 03008KT 14/14 A3006 RMK A01 T01370137  RH  100%=      5-min Rain = 0
KDO1 231132Z 04008KT 14/14 A3006 RMK A01 T01370138  RH  100%=      5-min Rain = 0
KDO1 231133Z 04006KT 14/14 A3006 RMK A01 T01370137  RH  100%=      5-min Rain = 0
KDO1 231134Z 04006KT 14/14 A3006 RMK A01 T01370137  RH  100%=      5-min Rain = 0
KDO1 231135Z 05008KT 14/14 A3006 RMK A01 T01370137  RH  100%=      5-min Rain = 0
KDO1 231136Z 04006KT 14/14 A3006 RMK A01 T01370137  RH  100%=      5-min Rain = 0
KDO1 231137Z 04007KT 14/14 A3006 RMK A01 T01370137  RH  100%=      5-min Rain = 0
KDO1 231138Z 04006KT 14/14 A3006 RMK A01 T01370137  RH  100%=      5-min Rain = 0
KDO1 231139Z 05006KT 14/14 A3006 RMK A01 T01370137  RH  100%=      5-min Rain = 0.01
KDO1 231140Z 04006KT 14/14 A3006 RMK A01 T01370137  RH  100%=      5-min Rain = 0
KDO1 231141Z 04006KT 14/14 A3006 RMK A01 T01370137  RH  100%=      5-min Rain = 0
KDO1 231142Z 04007KT 14/14 A3006 RMK A01 T01370137  RH  100%=      5-min Rain = 0.01
KDO1 231143Z 05006KT 14/14 A3006 RMK A01 T01370137  RH  100%=      5-min Rain = 0
KDO1 231144Z 04007KT 14/14 A3006 RMK A01 T01360136  RH  100%=      5-min Rain = 0
KDO1 231145Z 04005KT 14/14 A3006 RMK A01 T01360136  RH  100%=      5-min Rain = 0
KDO1 231146Z 05006KT 14/14 A3006 RMK A01 T01360136  RH  100%=      5-min Rain = 0.01
KDO1 231147Z 04006KT 14/14 A3006 RMK A01 T01360136  RH  100%=      5-min Rain = 0
KDO1 231148Z 05007KT 14/14 A3006 RMK A01 T01360136  RH  100%=      5-min Rain = 0
KDO1 231149Z 05007KT 14/14 A3006 RMK A01 T01350135  RH  100%=      5-min Rain = 0.01
KDO1 231150Z 04008KT 14/14 A3006 RMK A01 T01360136  RH  100%=      5-min Rain = 0.01
KDO1 231151Z 05008KT 14/14 A3006 RMK A01 T01350135  RH  100%=      5-min Rain = 0
KDO1 231152Z 05007KT 14/14 A3006 RMK A01 T01350135  RH  100%=      5-min Rain = 0
KDO1 231153Z 05007KT 14/14 A3006 RMK A01 T01350135  RH  100%=      5-min Rain = 0.01
KDO1 231154Z 05008KT 14/14 A3006 RMK A01 T01350135  RH  100%=      5-min Rain = 0
KDO1 231155Z 05008KT 14/14 A3006 RMK A01 T01350135  RH  100%=      5-min Rain = 0.01
KDO1 231156Z 05008KT 14/14 A3006 RMK A01 T01350135  RH  100%=      5-min Rain = 0
KDO1 231157Z 05007KT 13/13 A3005 RMK A01 T01340134  RH  100%=      5-min Rain = 0.01
KDO1 231158Z 05009KT 13/13 A3005 RMK A01 T01340134  RH  100%=      5-min Rain = 0
KDO1 231159Z 05008KT 13/13 A3005 RMK A01 T01340134  RH  100%=      5-min Rain = 0.01
KDO1 231200Z 05008KT 13/13 A3005 RMK A01 T01340134  RH  100%=      5-min Rain = 0
KDO1 231201Z 04009KT 13/13 A3005 RMK A01 T01340134  RH  100%=      5-min Rain = 0
KDO1 231202Z 04009KT 13/13 A3005 RMK A01 T01340134  RH  100%=      5-min Rain = 0.01
KDO1 231203Z 04009KT 13/13 A3005 RMK A01 T01340134  RH  100%=      5-min Rain = 0
KDO1 231204Z 03009KT 13/13 A3005 RMK A01 T01340134  RH  100%=      5-min Rain = 0.01
KDO1 231205Z 03009KT 13/13 A3005 RMK A01 T01330133  RH  100%=      5-min Rain = 0
KDO1 231206Z 03009KT 13/13 A3005 RMK A01 T01330133  RH  100%=      5-min Rain = 0
KDO1 231207Z 03009KT 13/13 A3005 RMK A01 T01330133  RH  100%=      5-min Rain = 0.01
KDO1 231208Z 03008KT 13/13 A3005 RMK A01 T01330133  RH  100%=      5-min Rain = 0
KDO1 231209Z 03009KT 13/13 A3005 RMK A01 T01330133  RH  100%=      5-min Rain = 0
KDO1 231210Z 03009KT 13/13 A3005 RMK A01 T01330133  RH  100%=      5-min Rain = 0.01
KDO1 231211Z 03009KT 13/13 A3005 RMK A01 T01330133  RH  100%=      5-min Rain = 0
KDO1 231212Z 03009KT 13/13 A3005 RMK A01 T01330133  RH  100%=      5-min Rain = 0
KDO1 231213Z 03007KT 13/13 A3005 RMK A01 T01330133  RH  100%=      5-min Rain = 0
KDO1 231214Z 03009KT 13/13 A3005 RMK A01 T01330133  RH  100%=      5-min Rain = 0
KDO1 231215Z 02008KT 13/13 A3005 RMK A01 T01330133  RH  100%=      5-min Rain = 0
KDO1 231216Z 03007KT 13/13 A3005 RMK A01 T01330133  RH  100%=      5-min Rain = 0
KDO1 231217Z 02008KT 13/13 A3005 RMK A01 T01330133  RH  100%=      5-min Rain = 0.01
KDO1 231218Z 01006KT 13/13 A3006 RMK A01 T01330133  RH  100%=      5-min Rain = 0
KDO1 231219Z 01006KT 13/13 A3006 RMK A01 T01330133  RH  100%=      5-min Rain = 0
KDO1 231220Z 01006KT 13/13 A3006 RMK A01 T01330133  RH  100%=      5-min Rain = 0
KDO1 231221Z 01006KT 13/13 A3007 RMK A01 T01330133  RH  100%=      5-min Rain = 0.01
KDO1 231222Z 01007KT 13/13 A3007 RMK A01 T01330133  RH  100%=      5-min Rain = 0
KDO1 231223Z 02005KT 13/13 A3007 RMK A01 T01330133  RH  100%=      5-min Rain = 0
KDO1 231224Z 01006KT 13/13 A3007 RMK A01 T01330133  RH  100%=      5-min Rain = 0
KDO1 231225Z 01005KT 13/13 A3008 RMK A01 T01330133  RH  100%=      5-min Rain = 0.01
KDO1 231226Z 01004KT 13/13 A3008 RMK A01 T01330133  RH  100%=      5-min Rain = 0
KDO1 231227Z 01005KT 13/13 A3008 RMK A01 T01330133  RH  100%=      5-min Rain = 0
KDO1 231228Z 02005KT 13/13 A3008 RMK A01 T01330133  RH  100%=      5-min Rain = 0
KDO1 231229Z 02004KT 13/13 A3008 RMK A01 T01330133  RH  100%=      5-min Rain = 0
KDO1 231230Z 01004KT 13/13 A3009 RMK A01 T01320132  RH  100%=      5-min Rain = 0
KDO1 231231Z 02004KT 13/13 A3009 RMK A01 T01320132  RH  100%=      5-min Rain = 0
KDO1 231232Z 02005KT 13/13 A3009 RMK A01 T01320132  RH  100%=      5-min Rain = 0.01
KDO1 231233Z 02007KT 13/13 A3009 RMK A01 T01320132  RH  100%=      5-min Rain = 0
KDO1 231234Z 02006KT 13/13 A3009 RMK A01 T01320132  RH  100%=      5-min Rain = 0
KDO1 231235Z 03007KT 13/13 A3009 RMK A01 T01320132  RH  100%=      5-min Rain = 0
KDO1 231236Z 02005KT 13/13 A3009 RMK A01 T01310131  RH  100%=      5-min Rain = 0
KDO1 231237Z 03007KT 13/13 A3009 RMK A01 T01310131  RH  100%=      5-min Rain = 0
KDO1 231238Z 03007KT 13/13 A3009 RMK A01 T01310131  RH  100%=      5-min Rain = 0
KDO1 231239Z 03007KT 13/13 A3009 RMK A01 T01310131  RH  100%=      5-min Rain = 0
KDO1 231240Z 02008KT 13/13 A3009 RMK A01 T01320132  RH  100%=      5-min Rain = 0.01
KDO1 231241Z 02010G15KT 13/13 A3009 RMK A01 T01310131  RH  100%=      5-min Rain = 0
KDO1 231242Z 01010KT 13/13 A3009 RMK A01 T01300130  RH  100%=      5-min Rain = 0.01
KDO1 231243Z 01011KT 13/13 A3009 RMK A01 T01290129  RH  100%=      5-min Rain = 0
KDO1 231244Z 01008KT 13/13 A3009 RMK A01 T01280128  RH  100%=      5-min Rain = 0.01
KDO1 231245Z 01008KT 13/13 A3009 RMK A01 T01280128  RH  100%=      5-min Rain = 0
KDO1 231246Z 02009KT 13/13 A3009 RMK A01 T01270127  RH  100%=      5-min Rain = 0.01
KDO1 231247Z 02008KT 13/13 A3009 RMK A01 T01270127  RH  100%=      5-min Rain = 0
KDO1 231248Z 02010KT 13/13 A3009 RMK A01 T01270127  RH  100%=      5-min Rain = 0
KDO1 231249Z 02010KT 13/13 A3009 RMK A01 T01260126  RH  100%=      5-min Rain = 0
KDO1 231250Z 01010KT 13/13 A3009 RMK A01 T01250125  RH  100%=      5-min Rain = 0.01
KDO1 231251Z 01010KT 13/13 A3009 RMK A01 T01250125  RH  100%=      5-min Rain = 0
KDO1 231252Z 02009KT 13/13 A3009 RMK A01 T01250125  RH  100%=      5-min Rain = 0
KDO1 231253Z 02009KT 12/12 A3009 RMK A01 T01240124  RH  100%=      5-min Rain = 0.01
KDO1 231254Z 02010KT 12/12 A3009 RMK A01 T01240124  RH  100%=      5-min Rain = 0
KDO1 231255Z 02010KT 12/12 A3009 RMK A01 T01240124  RH  100%=      5-min Rain = 0
KDO1 231256Z 02011KT 12/12 A3009 RMK A01 T01230123  RH  100%=      5-min Rain = 0.01
KDO1 231257Z 02012KT 12/12 A3008 RMK A01 T01230123  RH  100%=      5-min Rain = 0
KDO1 231258Z 02012KT 12/12 A3008 RMK A01 T01230123  RH  100%=      5-min Rain = 0
KDO1 231259Z 02011KT 12/12 A3008 RMK A01 T01220122  RH  100%=      5-min Rain = 0.01
KDO1 231300Z 02010KT 12/12 A3008 RMK A01 T01220122  RH  100%=      5-min Rain = 0
KDO1 231301Z 02012KT 12/12 A3008 RMK A01 T01220122  RH  100%=      5-min Rain = 0
KDO1 231302Z 02011KT 12/12 A3008 RMK A01 T01220122  RH  100%=      5-min Rain = 0
KDO1 231303Z 01009KT 12/12 A3008 RMK A01 T01220122  RH  100%=      5-min Rain = 0
KDO1 231304Z 01012G18KT 12/12 A3008 RMK A01 T01220122  RH  100%=      5-min Rain = 0
KDO1 231305Z 01011KT 12/12 A3008 RMK A01 T01220122  RH  100%=      5-min Rain = 0.01
KDO1 231306Z 01011KT 12/12 A3008 RMK A01 T01220122  RH  100%=      5-min Rain = 0
KDO1 231307Z 01010KT 12/12 A3008 RMK A01 T01220122  RH  100%=      5-min Rain = 0
KDO1 231308Z 01010KT 12/12 A3008 RMK A01 T01220122  RH  100%=      5-min Rain = 0
KDO1 231309Z 01011KT 12/12 A3008 RMK A01 T01220122  RH  100%=      5-min Rain = 0.01
KDO1 231310Z 01010KT 12/12 A3008 RMK A01 T01220122  RH  100%=      5-min Rain = 0
KDO1 231311Z 01013KT 12/12 A3008 RMK A01 T01220122  RH  100%=      5-min Rain = 0
KDO1 231312Z 02011KT 12/12 A3008 RMK A01 T01210121  RH  100%=      5-min Rain = 0
KDO1 231313Z 02012KT 12/12 A3008 RMK A01 T01210121  RH  100%=      5-min Rain = 0
KDO1 231314Z 02010KT 12/12 A3008 RMK A01 T01210121  RH  100%=      5-min Rain = 0.01
KDO1 231315Z 02011KT 12/12 A3008 RMK A01 T01200120  RH  100%=      5-min Rain = 0
KDO1 231316Z 01011KT 12/12 A3008 RMK A01 T01200120  RH  100%=      5-min Rain = 0
KDO1 231317Z 01013KT 12/12 A3008 RMK A01 T01200120  RH  100%=      5-min Rain = 0
KDO1 231318Z 36010KT 12/12 A3008 RMK A01 T01210121  RH  100%=      5-min Rain = 0
KDO1 231319Z 01010KT 12/12 A3008 RMK A01 T01200120  RH  100%=      5-min Rain = 0
KDO1 231320Z 36012KT 12/12 A3008 RMK A01 T01200120  RH  100%=      5-min Rain = 0
KDO1 231321Z 00011KT 12/12 A3008 RMK A01 T01200120  RH  100%=      5-min Rain = 0.01
KDO1 231322Z 01012G17KT 12/12 A3008 RMK A01 T01190119  RH  100%=      5-min Rain = 0
KDO1 231323Z 00014KT 12/12 A3008 RMK A01 T01190119  RH  100%=      5-min Rain = 0
KDO1 231324Z 01013KT 12/12 A3008 RMK A01 T01180118  RH  100%=      5-min Rain = 0
KDO1 231325Z 00011G16KT 12/12 A3008 RMK A01 T01180118  RH  100%=      5-min Rain = 0
KDO1 231326Z 00014G20KT 12/12 A3008 RMK A01 T01180118  RH  100%=      5-min Rain = 0
KDO1 231327Z 01013G18KT 12/12 A3008 RMK A01 T01170117  RH  100%=      5-min Rain = 0
KDO1 231328Z 00013KT 12/12 A3009 RMK A01 T01170117  RH  100%=      5-min Rain = 0
KDO1 231329Z 00013KT 12/12 A3009 RMK A01 T01160116  RH  100%=      5-min Rain = 0
KDO1 231330Z 01010G15KT 12/12 A3009 RMK A01 T01160116  RH  100%=      5-min Rain = 0.01
KDO1 231331Z 01012KT 12/12 A3009 RMK A01 T01160116  RH  100%=      5-min Rain = 0
KDO1 231332Z 00011KT 12/12 A3009 RMK A01 T01160116  RH  100%=      5-min Rain = 0.01
KDO1 231333Z 01010KT 12/12 A3009 RMK A01 T01150115  RH  100%=      5-min Rain = 0
KDO1 231334Z 01013KT 12/12 A3009 RMK A01 T01150115  RH  100%=      5-min Rain = 0
KDO1 231335Z 01011KT 12/12 A3008 RMK A01 T01150115  RH  100%=      5-min Rain = 0.01
KDO1 231336Z 01011KT 12/12 A3008 RMK A01 T01160116  RH  100%=      5-min Rain = 0
KDO1 231337Z 01011G16KT 12/12 A3008 RMK A01 T01150115  RH  100%=      5-min Rain = 0
KDO1 231338Z 01011KT 12/12 A3008 RMK A01 T01150115  RH  100%=      5-min Rain = 0
KDO1 231339Z 01013KT 12/12 A3008 RMK A01 T01160116  RH  100%=      5-min Rain = 0.01
KDO1 231340Z 01014KT 12/12 A3008 RMK A01 T01150115  RH  100%=      5-min Rain = 0
KDO1 231341Z 01013G19KT 12/12 A3008 RMK A01 T01150115  RH  100%=      5-min Rain = 0
KDO1 231342Z 01012KT 12/12 A3008 RMK A01 T01150115  RH  100%=      5-min Rain = 0
KDO1 231343Z 01012KT 12/12 A3008 RMK A01 T01150115  RH  100%=      5-min Rain = 0
KDO1 231344Z 01013KT 12/12 A3008 RMK A01 T01150115  RH  100%=      5-min Rain = 0
KDO1 231345Z 02010KT 12/12 A3008 RMK A01 T01150115  RH  100%=      5-min Rain = 0
KDO1 231346Z 02013G18KT 12/12 A3008 RMK A01 T01150115  RH  100%=      5-min Rain = 0
KDO1 231347Z 02010KT 12/12 A3009 RMK A01 T01150115  RH  100%=      5-min Rain = 0
KDO1 231348Z 02010KT 11/11 A3009 RMK A01 T01140114  RH  100%=      5-min Rain = 0
KDO1 231349Z 03010KT 11/11 A3009 RMK A01 T01140114  RH  100%=      5-min Rain = 0
KDO1 231350Z 03008KT 11/11 A3009 RMK A01 T01140114  RH  100%=      5-min Rain = 0
KDO1 231351Z 02009KT 12/12 A3009 RMK A01 T01150115  RH  100%=      5-min Rain = 0.01
KDO1 231352Z 03009KT 12/12 A3009 RMK A01 T01150115  RH  100%=      5-min Rain = 0
KDO1 231353Z 03008KT 12/12 A3009 RMK A01 T01150115  RH  100%=      5-min Rain = 0
KDO1 231354Z 03010KT 12/12 A301 RMK A01 T01150115  RH  100%=      5-min Rain = 0
KDO1 231355Z 02010KT 12/12 A301 RMK A01 T01150115  RH  100%=      5-min Rain = 0
KDO1 231356Z 02009KT 12/12 A301 RMK A01 T01150115  RH  100%=      5-min Rain = 0
KDO1 231357Z 02009KT 12/12 A301 RMK A01 T01150115  RH  100%=      5-min Rain = 0
KDO1 231358Z 02007KT 12/12 A301 RMK A01 T01150115  RH  100%=      5-min Rain = 0
KDO1 231359Z 01008KT 12/12 A301 RMK A01 T01160116  RH  100%=      5-min Rain = 0
KDO1 231400Z 02010KT 12/12 A301 RMK A01 T01160116  RH  100%=      5-min Rain = 0
KDO1 231401Z 01009KT 12/12 A301 RMK A01 T01160116  RH  100%=      5-min Rain = 0
KDO1 231402Z 00009KT 12/12 A301 RMK A01 T01160116  RH  100%=      5-min Rain = 0
KDO1 231403Z 00008KT 12/12 A301 RMK A01 T01160116  RH  100%=      5-min Rain = 0
KDO1 231404Z 01011KT 12/12 A301 RMK A01 T01160116  RH  100%=      5-min Rain = 0.01
KDO1 231405Z 02011KT 12/12 A301 RMK A01 T01160116  RH  100%=      5-min Rain = 0
KDO1 231406Z 02012KT 12/12 A301 RMK A01 T01160116  RH  100%=      5-min Rain = 0
KDO1 231407Z 02014KT 12/12 A301 RMK A01 T01160116  RH  100%=      5-min Rain = 0
KDO1 231408Z 02011KT 12/12 A301 RMK A01 T01160116  RH  100%=      5-min Rain = 0
KDO1 231409Z 02011KT 12/12 A301 RMK A01 T01160116  RH  100%=      5-min Rain = 0
KDO1 231410Z 03010KT 12/12 A301 RMK A01 T01150115  RH  100%=      5-min Rain = 0
KDO1 231411Z 03011KT 12/12 A301 RMK A01 T01150115  RH  100%=      5-min Rain = 0
KDO1 231412Z 02012KT 12/12 A3011 RMK A01 T01150115  RH  100%=      5-min Rain = 0
KDO1 231413Z 03010KT 11/11 A3011 RMK A01 T01140114  RH  100%=      5-min Rain = 0
KDO1 231414Z 02012KT 11/11 A3011 RMK A01 T01140114  RH  100%=      5-min Rain = 0
KDO1 231415Z 03010KT 11/11 A3011 RMK A01 T01140114  RH  100%=      5-min Rain = 0
KDO1 231416Z 03009KT 11/11 A3011 RMK A01 T01130113  RH  100%=      5-min Rain = 0
KDO1 231417Z 02008KT 11/11 A3011 RMK A01 T01130113  RH  100%=      5-min Rain = 0
KDO1 231418Z 03010KT 11/11 A3011 RMK A01 T01130113  RH  100%=      5-min Rain = 0
KDO1 231419Z 02008KT 11/11 A301 RMK A01 T01140114  RH  100%=      5-min Rain = 0
KDO1 231420Z 02010KT 11/11 A301 RMK A01 T01140114  RH  100%=      5-min Rain = 0
KDO1 231421Z 02014KT 11/11 A301 RMK A01 T01140114  RH  100%=      5-min Rain = 0
KDO1 231422Z 02011G18KT 11/11 A301 RMK A01 T01140114  RH  100%=      5-min Rain = 0
KDO1 231423Z 01012G17KT 11/11 A301 RMK A01 T01130113  RH  100%=      5-min Rain = 0
KDO1 231424Z 02010G15KT 11/11 A301 RMK A01 T01140114  RH  100%=      5-min Rain = 0
KDO1 231425Z 02011G17KT 11/11 A301 RMK A01 T01140114  RH  100%=      5-min Rain = 0
KDO1 231426Z 02014G21KT 12/12 A3011 RMK A01 T01150115  RH  100%=      5-min Rain = 0.01
KDO1 231427Z 02011G16KT 12/12 A301 RMK A01 T01150115  RH  100%=      5-min Rain = 0
KDO1 231428Z 01012G17KT 12/12 A3011 RMK A01 T01150115  RH  100%=      5-min Rain = 0
KDO1 231429Z 01010G15KT 12/12 A301 RMK A01 T01150115  RH  100%=      5-min Rain = 0
KDO1 231430Z 02011KT 12/12 A301 RMK A01 T01160116  RH  100%=      5-min Rain = 0
KDO1 231431Z 02009KT 12/12 A301 RMK A01 T01160116  RH  100%=      5-min Rain = 0
KDO1 231432Z 02011G16KT 12/12 A301 RMK A01 T01170117  RH  100%=      5-min Rain = 0
KDO1 231433Z 02012G18KT 12/12 A301 RMK A01 T01170117  RH  100%=      5-min Rain = 0
KDO1 231434Z 01013KT 12/12 A301 RMK A01 T01180118  RH  100%=      5-min Rain = 0
KDO1 231435Z 02013KT 12/12 A3009 RMK A01 T01180118  RH  100%=      5-min Rain = 0
KDO1 231436Z 02012KT 12/12 A3009 RMK A01 T01190119  RH  100%=      5-min Rain = 0
KDO1 231437Z 02014KT 12/12 A3009 RMK A01 T01200120  RH  100%=      5-min Rain = 0
KDO1 231438Z 02013G18KT 12/12 A3009 RMK A01 T01200120  RH  100%=      5-min Rain = 0
KDO1 231439Z 02011KT 12/12 A3009 RMK A01 T01210121  RH  100%=      5-min Rain = 0
KDO1 231440Z 01009G14KT 12/12 A3009 RMK A01 T01230123  RH  100%=      5-min Rain = 0
KDO1 231441Z 02011G16KT 12/12 A301 RMK A01 T01240124  RH  100%=      5-min Rain = 0
KDO1 231442Z 01010KT 12/12 A301 RMK A01 T01230123  RH  100%=      5-min Rain = 0
KDO1 231443Z 02011KT 12/12 A301 RMK A01 T01230123  RH  100%=      5-min Rain = 0
KDO1 231444Z 02012KT 12/12 A301 RMK A01 T01240124  RH  100%=      5-min Rain = 0
KDO1 231445Z 02010KT 12/12 A301 RMK A01 T01240124  RH  100%=      5-min Rain = 0
KDO1 231446Z 02009KT 12/12 A3011 RMK A01 T01240124  RH  100%=      5-min Rain = 0
KDO1 231447Z 02008KT 13/13 A3011 RMK A01 T01250125  RH  100%=      5-min Rain = 0
KDO1 231448Z 02010KT 13/13 A3011 RMK A01 T01250125  RH  100%=      5-min Rain = 0
KDO1 231449Z 02011KT 12/12 A3011 RMK A01 T01240124  RH  100%=      5-min Rain = 0
KDO1 231450Z 02008G13KT 12/12 A3011 RMK A01 T01220120  RH  099%=      5-min Rain = 0
KDO1 231451Z 03007KT 12/12 A3011 RMK A01 T01220121  RH  100%=      5-min Rain = 0
KDO1 231452Z 02008KT 12/12 A3011 RMK A01 T01220122  RH  100%=      5-min Rain = 0
KDO1 231453Z 03009G14KT 12/12 A3011 RMK A01 T01220122  RH  100%=      5-min Rain = 0
KDO1 231454Z 03012KT 12/12 A3011 RMK A01 T01220122  RH  100%=      5-min Rain = 0
KDO1 231455Z 03012KT 12/12 A3011 RMK A01 T01220121  RH  099%=      5-min Rain = 0
KDO1 231456Z 03009KT 12/12 A3011 RMK A01 T01210120  RH  099%=      5-min Rain = 0
KDO1 231457Z 02010KT 12/12 A3011 RMK A01 T01210121  RH  100%=      5-min Rain = 0
KDO1 231458Z 03011KT 12/12 A3011 RMK A01 T01220122  RH  100%=      5-min Rain = 0
KDO1 231459Z 02011KT 12/12 A3011 RMK A01 T01220121  RH  099%=      5-min Rain = 0
KDO1 231500Z 02011KT 12/12 A3011 RMK A01 T01210120  RH  099%=      5-min Rain = 0
KDO1 231501Z 03009KT 12/12 A3011 RMK A01 T01210120  RH  099%=      5-min Rain = 0
KDO1 231502Z 02008KT 12/12 A3011 RMK A01 T01210121  RH  100%=      5-min Rain = 0
KDO1 231503Z 02008KT 12/12 A3011 RMK A01 T01210121  RH  100%=      5-min Rain = 0
KDO1 231504Z 02010KT 12/12 A3011 RMK A01 T01210121  RH  100%=      5-min Rain = 0
KDO1 231505Z 02011KT 12/12 A3011 RMK A01 T01210120  RH  099%=      5-min Rain = 0
KDO1 231506Z 01009KT 12/12 A3011 RMK A01 T01210119  RH  099%=      5-min Rain = 0
KDO1 231507Z 01011KT 12/12 A3011 RMK A01 T01210118  RH  098%=      5-min Rain = 0
KDO1 231508Z 02011KT 12/12 A3011 RMK A01 T01210117  RH  098%=      5-min Rain = 0
KDO1 231509Z 03011KT 12/12 A3011 RMK A01 T01210118  RH  098%=      5-min Rain = 0
KDO1 231510Z 03014KT 12/12 A3011 RMK A01 T01210116  RH  097%=      5-min Rain = 0
KDO1 231511Z 02015KT 12/11 A3011 RMK A01 T01210113  RH  095%=      5-min Rain = 0
KDO1 231512Z 02012KT 12/11 A3011 RMK A01 T01200112  RH  095%=      5-min Rain = 0
KDO1 231513Z 03012KT 12/11 A3011 RMK A01 T01200113  RH  095%=      5-min Rain = 0
KDO1 231514Z 02010KT 12/11 A3011 RMK A01 T01210114  RH  096%=      5-min Rain = 0
KDO1 231515Z 02011KT 12/11 A3011 RMK A01 T01200114  RH  096%=      5-min Rain = 0
KDO1 231516Z 03013KT 12/11 A3011 RMK A01 T01200113  RH  095%=      5-min Rain = 0
KDO1 231517Z 03014KT 12/11 A3011 RMK A01 T01210112  RH  094%=      5-min Rain = 0
KDO1 231518Z 02014KT 12/11 A3011 RMK A01 T01210111  RH  094%=      5-min Rain = 0
KDO1 231519Z 02013KT 12/11 A3011 RMK A01 T01200109  RH  093%=      5-min Rain = 0
KDO1 231520Z 03014KT 12/11 A3012 RMK A01 T01200110  RH  093%=      5-min Rain = 0
KDO1 231521Z 03013KT 12/11 A3012 RMK A01 T01200109  RH  093%=      5-min Rain = 0
KDO1 231522Z 02012KT 12/11 A3012 RMK A01 T01200109  RH  093%=      5-min Rain = 0
KDO1 231523Z 02010KT 12/11 A3012 RMK A01 T01200110  RH  093%=      5-min Rain = 0
KDO1 231524Z 03009KT 12/11 A3012 RMK A01 T01200111  RH  094%=      5-min Rain = 0
KDO1 231525Z 03011KT 12/11 A3012 RMK A01 T01200112  RH  095%=      5-min Rain = 0
KDO1 231526Z 03010KT 12/11 A3012 RMK A01 T01210112  RH  094%=      5-min Rain = 0
KDO1 231527Z 03007KT 12/11 A3012 RMK A01 T01210113  RH  095%=      5-min Rain = 0
KDO1 231528Z 03009KT 12/11 A3012 RMK A01 T01210114  RH  095%=      5-min Rain = 0
KDO1 231529Z 03010KT 12/11 A3012 RMK A01 T01210113  RH  095%=      5-min Rain = 0
KDO1 231530Z 02008KT 12/12 A3012 RMK A01 T01210115  RH  096%=      5-min Rain = 0
KDO1 231531Z 02011KT 12/11 A3012 RMK A01 T01210114  RH  095%=      5-min Rain = 0
KDO1 231532Z 02010KT 12/11 A3012 RMK A01 T01210112  RH  094%=      5-min Rain = 0
KDO1 231533Z 02010KT 12/11 A3012 RMK A01 T01210113  RH  094%=      5-min Rain = 0
KDO1 231534Z 02011KT 12/11 A3012 RMK A01 T01210113  RH  095%=      5-min Rain = 0
KDO1 231535Z 02010KT 12/11 A3012 RMK A01 T01210113  RH  095%=      5-min Rain = 0
KDO1 231536Z 02012KT 12/11 A3012 RMK A01 T01210114  RH  095%=      5-min Rain = 0
KDO1 231537Z 02008KT 12/11 A3012 RMK A01 T01210114  RH  095%=      5-min Rain = 0
KDO1 231538Z 01009KT 12/12 A3012 RMK A01 T01210115  RH  096%=      5-min Rain = 0
KDO1 231539Z 02007KT 12/12 A3012 RMK A01 T01210116  RH  096%=      5-min Rain = 0
KDO1 231540Z 02009KT 12/12 A3012 RMK A01 T01210116  RH  097%=      5-min Rain = 0
KDO1 231541Z 02009KT 12/12 A3012 RMK A01 T01220116  RH  096%=      5-min Rain = 0
KDO1 231542Z 01012KT 12/12 A3012 RMK A01 T01220115  RH  096%=      5-min Rain = 0
KDO1 231543Z 01011KT 12/11 A3012 RMK A01 T01220114  RH  095%=      5-min Rain = 0
KDO1 231544Z 02011KT 12/11 A3012 RMK A01 T01210113  RH  095%=      5-min Rain = 0
KDO1 231545Z 02011G16KT 12/11 A3012 RMK A01 T01210112  RH  094%=      5-min Rain = 0
KDO1 231546Z 02010KT 12/11 A3012 RMK A01 T01210111  RH  094%=      5-min Rain = 0
KDO1 231547Z 02011KT 12/11 A3012 RMK A01 T01210111  RH  094%=      5-min Rain = 0
KDO1 231548Z 02011KT 12/11 A3012 RMK A01 T01210112  RH  094%=      5-min Rain = 0
KDO1 231549Z 02008KT 12/11 A3012 RMK A01 T01200112  RH  094%=      5-min Rain = 0
KDO1 231550Z 01006KT 12/11 A3012 RMK A01 T01210114  RH  096%=      5-min Rain = 0
KDO1 231551Z 01008KT 12/12 A3012 RMK A01 T01210115  RH  096%=      5-min Rain = 0
KDO1 231552Z 01010G15KT 12/11 A3012 RMK A01 T01210114  RH  095%=      5-min Rain = 0
KDO1 231553Z 01012G17KT 12/11 A3012 RMK A01 T01210112  RH  094%=      5-min Rain = 0
KDO1 231554Z 00010G15KT 12/11 A3012 RMK A01 T01210112  RH  094%=      5-min Rain = 0
KDO1 231555Z 01010KT 12/11 A3011 RMK A01 T01210112  RH  094%=      5-min Rain = 0
KDO1 231556Z 01011KT 12/11 A3011 RMK A01 T01210113  RH  095%=      5-min Rain = 0
KDO1 231557Z 01010G17KT 12/11 A3011 RMK A01 T01210112  RH  094%=      5-min Rain = 0
KDO1 231558Z 01014KT 12/11 A3011 RMK A01 T01210110  RH  093%=      5-min Rain = 0
KDO1 231559Z 01011KT 12/11 A3011 RMK A01 T01200110  RH  093%=      5-min Rain = 0
KDO1 231600Z 02008KT 12/11 A3011 RMK A01 T01200112  RH  095%=      5-min Rain = 0
KDO1 231601Z 02012KT 12/11 A3011 RMK A01 T01200112  RH  095%=      5-min Rain = 0
KDO1 231602Z 01012KT 12/11 A3011 RMK A01 T01200112  RH  094%=      5-min Rain = 0
KDO1 231603Z 01012KT 12/11 A3011 RMK A01 T01200111  RH  094%=      5-min Rain = 0
KDO1 231604Z 03009KT 12/11 A3011 RMK A01 T01200111  RH  094%=      5-min Rain = 0
KDO1 231605Z 02009KT 12/11 A3011 RMK A01 T01190112  RH  095%=      5-min Rain = 0
KDO1 231606Z 01010G15KT 12/11 A3011 RMK A01 T01200111  RH  094%=      5-min Rain = 0
KDO1 231607Z 01011KT 12/11 A3011 RMK A01 T01200109  RH  093%=      5-min Rain = 0
KDO1 231608Z 01008KT 12/11 A3011 RMK A01 T01190109  RH  093%=      5-min Rain = 0
KDO1 231609Z 02010G15KT 12/11 A3011 RMK A01 T01190111  RH  095%=      5-min Rain = 0
KDO1 231610Z 02014KT 12/11 A3011 RMK A01 T01190109  RH  093%=      5-min Rain = 0
KDO1 231611Z 01011KT 12/11 A3011 RMK A01 T01190107  RH  093%=      5-min Rain = 0
KDO1 231612Z 02011KT 12/11 A3011 RMK A01 T01180108  RH  093%=      5-min Rain = 0
KDO1 231613Z 02010KT 12/11 A3011 RMK A01 T01180108  RH  093%=      5-min Rain = 0
KDO1 231614Z 01012KT 12/11 A3011 RMK A01 T01180108  RH  093%=      5-min Rain = 0
KDO1 231615Z 01012KT 12/11 A3011 RMK A01 T01180107  RH  093%=      5-min Rain = 0
KDO1 231616Z 02011KT 12/11 A3011 RMK A01 T01180107  RH  093%=      5-min Rain = 0
KDO1 231617Z 02010G15KT 12/11 A3011 RMK A01 T01170106  RH  093%=      5-min Rain = 0
KDO1 231618Z 03008KT 12/11 A3011 RMK A01 T01170108  RH  094%=      5-min Rain = 0
KDO1 231619Z 01010KT 12/11 A3011 RMK A01 T01180109  RH  094%=      5-min Rain = 0
KDO1 231620Z 03011KT 12/11 A3011 RMK A01 T01190108  RH  093%=      5-min Rain = 0
KDO1 231621Z 02012G18KT 12/10 A3011 RMK A01 T01190102  RH  089%=      5-min Rain = 0
KDO1 231622Z 03013KT 12/10 A3011 RMK A01 T01190101  RH  089%=      5-min Rain = 0
KDO1 231623Z 03011KT 12/10 A3011 RMK A01 T01190101  RH  089%=      5-min Rain = 0
KDO1 231624Z 03013KT 12/10 A3011 RMK A01 T01190101  RH  088%=      5-min Rain = 0
KDO1 231625Z 02011KT 12/10 A3011 RMK A01 T01190101  RH  088%=      5-min Rain = 0
KDO1 231626Z 03009KT 12/10 A3011 RMK A01 T01190102  RH  089%=      5-min Rain = 0
KDO1 231627Z 03008KT 12/11 A3012 RMK A01 T01200105  RH  090%=      5-min Rain = 0
KDO1 231628Z 03010KT 12/11 A3012 RMK A01 T01210105  RH  090%=      5-min Rain = 0
KDO1 231629Z 03013KT 12/10 A3012 RMK A01 T01210103  RH  089%=      5-min Rain = 0
KDO1 231630Z 02010KT 12/10 A3012 RMK A01 T01210103  RH  088%=      5-min Rain = 0
KDO1 231631Z 02009KT 12/10 A3012 RMK A01 T01210103  RH  089%=      5-min Rain = 0
KDO1 231632Z 02008KT 12/11 A3012 RMK A01 T01210106  RH  090%=      5-min Rain = 0
KDO1 231633Z 01009KT 12/11 A3012 RMK A01 T01210107  RH  091%=      5-min Rain = 0
KDO1 231634Z 02009KT 12/11 A3012 RMK A01 T01220106  RH  090%=      5-min Rain = 0
KDO1 231635Z 02011KT 12/11 A3012 RMK A01 T01220105  RH  089%=      5-min Rain = 0
KDO1 231636Z 02013KT 12/10 A3012 RMK A01 T01220103  RH  088%=      5-min Rain = 0
KDO1 231637Z 02013KT 12/10 A3012 RMK A01 T01220103  RH  088%=      5-min Rain = 0
KDO1 231638Z 02012KT 12/10 A3012 RMK A01 T01220102  RH  088%=      5-min Rain = 0
KDO1 231639Z 02011G16KT 12/10 A3012 RMK A01 T01220103  RH  088%=      5-min Rain = 0
KDO1 231640Z 02013KT 12/10 A3012 RMK A01 T01220102  RH  088%=      5-min Rain = 0
KDO1 231641Z 02010KT 12/10 A3012 RMK A01 T01220103  RH  088%=      5-min Rain = 0
KDO1 231642Z 02012KT 12/10 A3012 RMK A01 T01220102  RH  088%=      5-min Rain = 0
KDO1 231643Z 01011KT 12/10 A3012 RMK A01 T01220101  RH  087%=      5-min Rain = 0
KDO1 231644Z 02010KT 12/10 A3012 RMK A01 T01220101  RH  087%=      5-min Rain = 0
KDO1 231645Z 02008KT 12/10 A3013 RMK A01 T01220102  RH  088%=      5-min Rain = 0
KDO1 231646Z 01008KT 12/10 A3013 RMK A01 T01220102  RH  088%=      5-min Rain = 0
KDO1 231647Z 01009KT 12/10 A3013 RMK A01 T01220101  RH  087%=      5-min Rain = 0
KDO1 231648Z 02010KT 12/10 A3013 RMK A01 T01220102  RH  088%=      5-min Rain = 0
KDO1 231649Z 02008KT 12/10 A3013 RMK A01 T01230102  RH  088%=      5-min Rain = 0
KDO1 231650Z 02010KT 12/10 A3013 RMK A01 T01230102  RH  087%=      5-min Rain = 0
KDO1 231651Z 01011KT 12/10 A3013 RMK A01 T01230101  RH  087%=      5-min Rain = 0
KDO1 231652Z 02012KT 12/10 A3013 RMK A01 T01230100  RH  086%=      5-min Rain = 0
KDO1 231653Z 02012KT 12/10 A3013 RMK A01 T01220101  RH  087%=      5-min Rain = 0
KDO1 231654Z 02010KT 12/10 A3013 RMK A01 T01220099  RH  086%=      5-min Rain = 0
KDO1 231655Z 02008KT 12/10 A3013 RMK A01 T01220101  RH  087%=      5-min Rain = 0
KDO1 231656Z 01010KT 12/10 A3013 RMK A01 T01220101  RH  087%=      5-min Rain = 0
KDO1 231657Z 01010KT 12/10 A3013 RMK A01 T01220101  RH  087%=      5-min Rain = 0
KDO1 231658Z 01008KT 12/10 A3013 RMK A01 T01220102  RH  087%=      5-min Rain = 0
KDO1 231659Z 02007KT 12/10 A3013 RMK A01 T01220102  RH  088%=      5-min Rain = 0
KDO1 231700Z 02007KT 12/10 A3013 RMK A01 T01230104  RH  089%=      5-min Rain = 0
KDO1 231701Z 01007KT 12/10 A3013 RMK A01 T01230104  RH  088%=      5-min Rain = 0
KDO1 231702Z 01009KT 12/10 A3013 RMK A01 T01230104  RH  088%=      5-min Rain = 0
KDO1 231703Z 01009KT 12/10 A3013 RMK A01 T01230103  RH  087%=      5-min Rain = 0
KDO1 231704Z 01009KT 12/10 A3013 RMK A01 T01230103  RH  087%=      5-min Rain = 0
KDO1 231705Z 02006KT 12/10 A3013 RMK A01 T01230104  RH  088%=      5-min Rain = 0
KDO1 231706Z 02007KT 12/11 A3013 RMK A01 T01230105  RH  089%=      5-min Rain = 0
KDO1 231707Z 03006KT 12/11 A3013 RMK A01 T01230105  RH  089%=      5-min Rain = 0
KDO1 231708Z 03008KT 12/11 A3013 RMK A01 T01240105  RH  088%=      5-min Rain = 0
KDO1 231709Z 03007KT 12/10 A3013 RMK A01 T01240103  RH  087%=      5-min Rain = 0
KDO1 231710Z 02008KT 12/10 A3013 RMK A01 T01240104  RH  088%=      5-min Rain = 0
KDO1 231711Z 02007KT 12/10 A3013 RMK A01 T01240103  RH  087%=      5-min Rain = 0
KDO1 231712Z 02011KT 12/10 A3013 RMK A01 T01230102  RH  087%=      5-min Rain = 0
KDO1 231713Z 02009KT 12/10 A3013 RMK A01 T01230102  RH  087%=      5-min Rain = 0
KDO1 231714Z 02010KT 12/10 A3013 RMK A01 T01230102  RH  087%=      5-min Rain = 0
KDO1 231715Z 01009KT 12/10 A3013 RMK A01 T01230100  RH  086%=      5-min Rain = 0
KDO1 231716Z 02011KT 12/10 A3013 RMK A01 T01220101  RH  087%=      5-min Rain = 0
KDO1 231717Z 02011G16KT 12/10 A3013 RMK A01 T01220100  RH  086%=      5-min Rain = 0
KDO1 231718Z 01009KT 12/10 A3013 RMK A01 T01220099  RH  086%=      5-min Rain = 0
KDO1 231719Z 02010KT 12/10 A3013 RMK A01 T01220100  RH  087%=      5-min Rain = 0
KDO1 231720Z 02009KT 12/10 A3012 RMK A01 T01220099  RH  086%=      5-min Rain = 0
KDO1 231721Z 02008KT 12/10 A3012 RMK A01 T01220100  RH  086%=      5-min Rain = 0
KDO1 231722Z 02009KT 12/10 A3012 RMK A01 T01220100  RH  086%=      5-min Rain = 0
KDO1 231723Z 02010KT 12/10 A3012 RMK A01 T01220100  RH  086%=      5-min Rain = 0
KDO1 231724Z 02009KT 12/10 A3012 RMK A01 T01220099  RH  086%=      5-min Rain = 0
KDO1 231725Z 02010KT 12/10 A3012 RMK A01 T01220099  RH  086%=      5-min Rain = 0
KDO1 231726Z 03009KT 12/10 A3012 RMK A01 T01220100  RH  086%=      5-min Rain = 0
KDO1 231727Z 02009KT 12/10 A3012 RMK A01 T01220100  RH  087%=      5-min Rain = 0
KDO1 231728Z 02008KT 12/10 A3012 RMK A01 T01220099  RH  086%=      5-min Rain = 0
KDO1 231729Z 03009KT 12/10 A3012 RMK A01 T01220098  RH  085%=      5-min Rain = 0
KDO1 231730Z 02009KT 12/10 A3012 RMK A01 T01220098  RH  085%=      5-min Rain = 0
KDO1 231731Z 03010KT 12/10 A3012 RMK A01 T01220099  RH  086%=      5-min Rain = 0
KDO1 231732Z 03008KT 12/10 A3012 RMK A01 T01220098  RH  085%=      5-min Rain = 0
KDO1 231733Z 02008KT 12/10 A3012 RMK A01 T01220099  RH  086%=      5-min Rain = 0
KDO1 231734Z 03009KT 12/10 A3012 RMK A01 T01220099  RH  086%=      5-min Rain = 0
KDO1 231735Z 02010KT 12/10 A3012 RMK A01 T01220099  RH  086%=      5-min Rain = 0
KDO1 231736Z 02009KT 12/10 A3012 RMK A01 T01220099  RH  086%=      5-min Rain = 0
KDO1 231737Z 02007KT 12/10 A3012 RMK A01 T01220099  RH  086%=      5-min Rain = 0
KDO1 231738Z 03006KT 12/10 A3012 RMK A01 T01220101  RH  087%=      5-min Rain = 0
KDO1 231739Z 02007KT 12/10 A3012 RMK A01 T01230102  RH  087%=      5-min Rain = 0
KDO1 231740Z 02009KT 12/10 A3012 RMK A01 T01230100  RH  086%=      5-min Rain = 0
KDO1 231741Z 02009KT 12/10 A3012 RMK A01 T01230100  RH  085%=      5-min Rain = 0
KDO1 231742Z 02009KT 12/10 A3012 RMK A01 T01230099  RH  085%=      5-min Rain = 0
KDO1 231743Z 02010KT 12/10 A3012 RMK A01 T01230099  RH  085%=      5-min Rain = 0
KDO1 231744Z 03012KT 12/10 A3012 RMK A01 T01240099  RH  085%=      5-min Rain = 0
KDO1 231745Z 03011KT 12/10 A3011 RMK A01 T01230098  RH  084%=      5-min Rain = 0
KDO1 231746Z 03012KT 12/10 A3011 RMK A01 T01240098  RH  084%=      5-min Rain = 0
KDO1 231747Z 03009KT 12/10 A3011 RMK A01 T01240098  RH  084%=      5-min Rain = 0
KDO1 231748Z 03010KT 12/10 A3011 RMK A01 T01240099  RH  085%=      5-min Rain = 0
KDO1 231749Z 03011KT 12/10 A3011 RMK A01 T01240098  RH  085%=      5-min Rain = 0
KDO1 231750Z 03008KT 12/10 A3011 RMK A01 T01240099  RH  085%=      5-min Rain = 0
KDO1 231751Z 02009KT 12/10 A3011 RMK A01 T01240100  RH  085%=      5-min Rain = 0
KDO1 231752Z 03011KT 12/10 A3011 RMK A01 T01240100  RH  085%=      5-min Rain = 0
KDO1 231753Z 03011KT 12/10 A3011 RMK A01 T01240099  RH  085%=      5-min Rain = 0
KDO1 231754Z 03009KT 12/10 A3011 RMK A01 T01240100  RH  085%=      5-min Rain = 0
KDO1 231755Z 03006KT 12/10 A3011 RMK A01 T01240101  RH  086%=      5-min Rain = 0
KDO1 231756Z 03009KT 13/10 A3011 RMK A01 T01250102  RH  086%=      5-min Rain = 0
KDO1 231757Z 04008KT 13/10 A3011 RMK A01 T01250102  RH  086%=      5-min Rain = 0
KDO1 231758Z 03007KT 13/10 A3011 RMK A01 T01250103  RH  086%=      5-min Rain = 0
KDO1 231759Z 03006KT 13/10 A3011 RMK A01 T01250104  RH  087%=      5-min Rain = 0
KDO1 231800Z 03008KT 13/10 A3011 RMK A01 T01250104  RH  087%=      5-min Rain = 0
KDO1 231801Z 03008KT 13/10 A3011 RMK A01 T01250103  RH  086%=      5-min Rain = 0
KDO1 231802Z 03008KT 13/10 A3011 RMK A01 T01260103  RH  086%=      5-min Rain = 0
KDO1 231803Z 02009KT 13/10 A3011 RMK A01 T01250103  RH  086%=      5-min Rain = 0
KDO1 231804Z 03008KT 13/10 A3011 RMK A01 T01250101  RH  085%=      5-min Rain = 0
KDO1 231805Z 03008KT 13/10 A3011 RMK A01 T01250102  RH  086%=      5-min Rain = 0
KDO1 231806Z 02007KT 13/10 A3011 RMK A01 T01250101  RH  085%=      5-min Rain = 0
KDO1 231807Z 04007KT 13/10 A3011 RMK A01 T01260103  RH  086%=      5-min Rain = 0
KDO1 231808Z 04010KT 13/10 A3011 RMK A01 T01260102  RH  085%=      5-min Rain = 0
KDO1 231809Z 04011KT 13/10 A3011 RMK A01 T01270101  RH  084%=      5-min Rain = 0
KDO1 231810Z 03008KT 13/10 A3011 RMK A01 T01270102  RH  084%=      5-min Rain = 0
KDO1 231811Z 03007KT 13/10 A3011 RMK A01 T01280102  RH  084%=      5-min Rain = 0
KDO1 231812Z 03008KT 13/10 A3011 RMK A01 T01280104  RH  085%=      5-min Rain = 0
KDO1 231813Z 04011KT 13/10 A3011 RMK A01 T01290102  RH  084%=      5-min Rain = 0
KDO1 231814Z 03009KT 13/10 A3011 RMK A01 T01290101  RH  083%=      5-min Rain = 0
KDO1 231815Z 02008KT 13/10 A3011 RMK A01 T01290102  RH  084%=      5-min Rain = 0
KDO1 231816Z 02011KT 13/10 A301 RMK A01 T01290103  RH  084%=      5-min Rain = 0
KDO1 231817Z 02009KT 13/10 A301 RMK A01 T01290102  RH  084%=      5-min Rain = 0
KDO1 231818Z 03010KT 13/10 A301 RMK A01 T01290102  RH  084%=      5-min Rain = 0
KDO1 231819Z 02010KT 13/10 A301 RMK A01 T01290101  RH  083%=      5-min Rain = 0
KDO1 231820Z 02011KT 13/10 A301 RMK A01 T01290100  RH  083%=      5-min Rain = 0
KDO1 231821Z 02009KT 13/10 A301 RMK A01 T01290101  RH  083%=      5-min Rain = 0
KDO1 231822Z 02009KT 13/10 A301 RMK A01 T01300104  RH  084%=      5-min Rain = 0
KDO1 231823Z 01008KT 13/11 A301 RMK A01 T01310105  RH  084%=      5-min Rain = 0
KDO1 231824Z 02006KT 13/10 A301 RMK A01 T01310104  RH  084%=      5-min Rain = 0
KDO1 231825Z 02006KT 13/11 A3009 RMK A01 T01320108  RH  085%=      5-min Rain = 0
KDO1 231826Z 02010KT 13/11 A3009 RMK A01 T01340108  RH  084%=      5-min Rain = 0
KDO1 231827Z 02009KT 13/11 A3009 RMK A01 T01340106  RH  083%=      5-min Rain = 0
KDO1 231828Z 02007KT 13/11 A3009 RMK A01 T01340107  RH  083%=      5-min Rain = 0
KDO1 231829Z 01010KT 14/11 A3009 RMK A01 T01350106  RH  082%=      5-min Rain = 0
KDO1 231830Z 02010KT 14/10 A3009 RMK A01 T01350104  RH  081%=      5-min Rain = 0
KDO1 231831Z 03011KT 14/11 A3009 RMK A01 T01350105  RH  082%=      5-min Rain = 0
KDO1 231832Z 02010KT 14/11 A3009 RMK A01 T01350105  RH  082%=      5-min Rain = 0
KDO1 231833Z 01011KT 14/11 A3009 RMK A01 T01370105  RH  081%=      5-min Rain = 0
KDO1 231834Z 01012KT 14/10 A3009 RMK A01 T01360102  RH  080%=      5-min Rain = 0
KDO1 231835Z 01011KT 14/10 A3009 RMK A01 T01360104  RH  081%=      5-min Rain = 0
KDO1 231836Z 01012KT 14/10 A3008 RMK A01 T01360103  RH  080%=      5-min Rain = 0
KDO1 231837Z 01009KT 14/11 A3008 RMK A01 T01360105  RH  081%=      5-min Rain = 0
KDO1 231838Z 01012KT 14/11 A3008 RMK A01 T01380110  RH  083%=      5-min Rain = 0
KDO1 231839Z 01013KT 14/10 A3008 RMK A01 T01400104  RH  079%=      5-min Rain = 0
KDO1 231840Z 01011KT 14/10 A3008 RMK A01 T01390103  RH  079%=      5-min Rain = 0
KDO1 231841Z 36009KT 14/11 A3008 RMK A01 T01390107  RH  081%=      5-min Rain = 0
KDO1 231842Z 01011KT 14/11 A3008 RMK A01 T01420109  RH  081%=      5-min Rain = 0
KDO1 231843Z 01012KT 14/11 A3008 RMK A01 T01420105  RH  078%=      5-min Rain = 0
KDO1 231844Z 01010KT 14/11 A3008 RMK A01 T01430106  RH  079%=      5-min Rain = 0
KDO1 231845Z 02009G15KT 14/11 A3008 RMK A01 T01430106  RH  079%=      5-min Rain = 0
KDO1 231846Z 02014KT 14/10 A3008 RMK A01 T01440104  RH  077%=      5-min Rain = 0
KDO1 231847Z 01013KT 14/10 A3008 RMK A01 T01430101  RH  076%=      5-min Rain = 0
KDO1 231848Z 02013KT 14/10 A3008 RMK A01 T01420102  RH  077%=      5-min Rain = 0
KDO1 231849Z 01010G16KT 14/11 A3008 RMK A01 T01420107  RH  079%=      5-min Rain = 0
KDO1 231850Z 02012KT 14/11 A3008 RMK A01 T01440106  RH  077%=      5-min Rain = 0
KDO1 231851Z 02012KT 15/10 A3008 RMK A01 T01450104  RH  077%=      5-min Rain = 0
KDO1 231852Z 02012G17KT 15/11 A3008 RMK A01 T01450105  RH  077%=      5-min Rain = 0
KDO1 231853Z 03010G15KT 15/11 A3008 RMK A01 T01460106  RH  077%=      5-min Rain = 0
KDO1 231854Z 03011KT 15/11 A3008 RMK A01 T01480109  RH  078%=      5-min Rain = 0
KDO1 231855Z 02009G14KT 15/11 A3007 RMK A01 T01500111  RH  078%=      5-min Rain = 0
KDO1 231856Z 01010KT 15/11 A3008 RMK A01 T01510111  RH  077%=      5-min Rain = 0
KDO1 231857Z 01010KT 15/11 A3007 RMK A01 T01520112  RH  077%=      5-min Rain = 0
KDO1 231858Z 01011KT 15/11 A3007 RMK A01 T01520113  RH  077%=      5-min Rain = 0
KDO1 231859Z 01012KT 15/11 A3007 RMK A01 T01510108  RH  075%=      5-min Rain = 0
KDO1 231900Z 01012G17KT 15/11 A3007 RMK A01 T01500109  RH  076%=      5-min Rain = 0
KDO1 231901Z 01013KT 15/11 A3007 RMK A01 T01490107  RH  076%=      5-min Rain = 0
KDO1 231902Z 01013KT 15/11 A3007 RMK A01 T01480106  RH  075%=      5-min Rain = 0
KDO1 231903Z 01011G16KT 15/11 A3007 RMK A01 T01480107  RH  077%=      5-min Rain = 0
KDO1 231904Z 01014KT 15/11 A3007 RMK A01 T01480105  RH  075%=      5-min Rain = 0
KDO1 231905Z 00010KT 15/11 A3007 RMK A01 T01480108  RH  077%=      5-min Rain = 0
KDO1 231906Z 01011KT 15/11 A3007 RMK A01 T01490113  RH  079%=      5-min Rain = 0
KDO1 231907Z 36014KT 15/11 A3006 RMK A01 T01500112  RH  078%=      5-min Rain = 0
KDO1 231908Z 35013KT 15/11 A3006 RMK A01 T01510111  RH  077%=      5-min Rain = 0
KDO1 231909Z 01011G16KT 15/11 A3006 RMK A01 T01510114  RH  078%=      5-min Rain = 0
KDO1 231910Z 01013KT 15/11 A3006 RMK A01 T01520113  RH  077%=      5-min Rain = 0
KDO1 231911Z 02012KT 15/11 A3007 RMK A01 T01540106  RH  073%=      5-min Rain = 0
KDO1 231912Z 01011KT 15/11 A3007 RMK A01 T01520105  RH  073%=      5-min Rain = 0
KDO1 231913Z 01009KT 15/11 A3006 RMK A01 T01520108  RH  075%=      5-min Rain = 0
KDO1 231914Z 01011KT 15/11 A3006 RMK A01 T01520106  RH  074%=      5-min Rain = 0
KDO1 231915Z 01011KT 15/11 A3006 RMK A01 T01530106  RH  074%=      5-min Rain = 0
KDO1 231916Z 02012KT 15/11 A3006 RMK A01 T01530106  RH  074%=      5-min Rain = 0
KDO1 231917Z 00009G14KT 16/11 A3006 RMK A01 T01550113  RH  076%=      5-min Rain = 0
KDO1 231918Z 01011KT 16/11 A3006 RMK A01 T01570111  RH  074%=      5-min Rain = 0
KDO1 231919Z 01013KT 16/11 A3006 RMK A01 T01580110  RH  073%=      5-min Rain = 0
KDO1 231920Z 01013G18KT 16/11 A3006 RMK A01 T01570106  RH  072%=      5-min Rain = 0
KDO1 231921Z 01012KT 16/11 A3006 RMK A01 T01560105  RH  072%=      5-min Rain = 0
KDO1 231922Z 01012KT 15/11 A3006 RMK A01 T01540107  RH  073%=      5-min Rain = 0
KDO1 231923Z 01014KT 15/11 A3006 RMK A01 T01540106  RH  073%=      5-min Rain = 0
KDO1 231924Z 01013KT 15/11 A3006 RMK A01 T01530106  RH  073%=      5-min Rain = 0
KDO1 231925Z 00012KT 15/11 A3006 RMK A01 T01530108  RH  075%=      5-min Rain = 0
KDO1 231926Z 00012KT 16/11 A3006 RMK A01 T01550110  RH  075%=      5-min Rain = 0
KDO1 231927Z 01011G16KT 16/10 A3006 RMK A01 T01550104  RH  072%=      5-min Rain = 0
KDO1 231928Z 01010KT 15/11 A3006 RMK A01 T01530107  RH  074%=      5-min Rain = 0
KDO1 231929Z 00010KT 15/11 A3006 RMK A01 T01540109  RH  075%=      5-min Rain = 0
KDO1 231930Z 02013KT 16/11 A3006 RMK A01 T01550111  RH  075%=      5-min Rain = 0
KDO1 231931Z 02010KT 16/11 A3006 RMK A01 T01560110  RH  074%=      5-min Rain = 0
KDO1 231932Z 03012KT 16/11 A3006 RMK A01 T01570110  RH  074%=      5-min Rain = 0
KDO1 231933Z 03011KT 16/11 A3006 RMK A01 T01560107  RH  073%=      5-min Rain = 0
KDO1 231934Z 02011KT 16/11 A3006 RMK A01 T01570114  RH  076%=      5-min Rain = 0
KDO1 231935Z 02013KT 16/11 A3006 RMK A01 T01580110  RH  073%=      5-min Rain = 0
KDO1 231936Z 02010KT 16/11 A3005 RMK A01 T01580110  RH  073%=      5-min Rain = 0
KDO1 231937Z 02011KT 16/11 A3005 RMK A01 T01590112  RH  074%=      5-min Rain = 0
KDO1 231938Z 02012KT 16/11 A3005 RMK A01 T01600111  RH  073%=      5-min Rain = 0
KDO1 231939Z 01010KT 16/11 A3006 RMK A01 T01590113  RH  074%=      5-min Rain = 0
KDO1 231940Z 01013KT 16/11 A3006 RMK A01 T01590112  RH  074%=      5-min Rain = 0
KDO1 231941Z 01011KT 16/11 A3006 RMK A01 T01580110  RH  073%=      5-min Rain = 0
KDO1 231942Z 01012G17KT 16/11 A3005 RMK A01 T01580110  RH  073%=      5-min Rain = 0
KDO1 231943Z 01012KT 16/11 A3006 RMK A01 T01580108  RH  072%=      5-min Rain = 0
KDO1 231944Z 01010G15KT 16/11 A3005 RMK A01 T01560110  RH  074%=      5-min Rain = 0
KDO1 231945Z 36012KT 16/12 A3006 RMK A01 T01570115  RH  076%=      5-min Rain = 0
KDO1 231946Z 00013KT 16/11 A3006 RMK A01 T01580114  RH  075%=      5-min Rain = 0
KDO1 231947Z 00010KT 16/11 A3006 RMK A01 T01580112  RH  074%=      5-min Rain = 0
KDO1 231948Z 00013KT 16/11 A3006 RMK A01 T01570110  RH  073%=      5-min Rain = 0
KDO1 231949Z 36011KT 16/11 A3006 RMK A01 T01570114  RH  076%=      5-min Rain = 0
KDO1 231950Z 35008KT 16/12 A3005 RMK A01 T01590117  RH  076%=      5-min Rain = 0
KDO1 231951Z 02010G15KT 16/12 A3006 RMK A01 T01610121  RH  077%=      5-min Rain = 0
KDO1 231952Z 02011KT 16/11 A3006 RMK A01 T01630111  RH  071%=      5-min Rain = 0
KDO1 231953Z 02010KT 16/11 A3006 RMK A01 T01600107  RH  071%=      5-min Rain = 0
KDO1 231954Z 03011KT 16/11 A3006 RMK A01 T01580111  RH  073%=      5-min Rain = 0
KDO1 231955Z 01011KT 16/11 A3006 RMK A01 T01590111  RH  073%=      5-min Rain = 0
KDO1 231956Z 02011KT 16/11 A3006 RMK A01 T01580110  RH  073%=      5-min Rain = 0
KDO1 231957Z 03010KT 16/11 A3006 RMK A01 T01590112  RH  074%=      5-min Rain = 0
KDO1 231958Z 03008KT 16/11 A3006 RMK A01 T01590111  RH  073%=      5-min Rain = 0
KDO1 231959Z 03010KT 16/12 A3006 RMK A01 T01600115  RH  075%=      5-min Rain = 0
KDO1 232000Z 01009KT 16/12 A3006 RMK A01 T01630115  RH  073%=      5-min Rain = 0
KDO1 232001Z 00010G15KT 17/12 A3006 RMK A01 T01660122  RH  075%=      5-min Rain = 0
KDO1 232002Z 01013KT 17/12 A3006 RMK A01 T01670117  RH  072%=      5-min Rain = 0
KDO1 232003Z 01011KT 16/11 A3006 RMK A01 T01640110  RH  071%=      5-min Rain = 0
KDO1 232004Z 01010KT 16/11 A3006 RMK A01 T01610110  RH  072%=      5-min Rain = 0
KDO1 232005Z 36013KT 16/11 A3006 RMK A01 T01600114  RH  074%=      5-min Rain = 0
KDO1 232006Z 02008G14KT 16/12 A3006 RMK A01 T01610120  RH  077%=      5-min Rain = 0
KDO1 232007Z 02008KT 16/12 A3006 RMK A01 T01630115  RH  073%=      5-min Rain = 0
KDO1 232008Z 00011KT 16/11 A3006 RMK A01 T01630113  RH  072%=      5-min Rain = 0
KDO1 232009Z 01010KT 16/11 A3006 RMK A01 T01620110  RH  072%=      5-min Rain = 0
KDO1 232010Z 02010KT 16/11 A3006 RMK A01 T01610111  RH  072%=      5-min Rain = 0
KDO1 232011Z 02010KT 16/11 A3006 RMK A01 T01610110  RH  072%=      5-min Rain = 0
KDO1 232012Z 01008KT 16/11 A3006 RMK A01 T01610110  RH  071%=      5-min Rain = 0
KDO1 232013Z 01008KT 16/11 A3006 RMK A01 T01610112  RH  073%=      5-min Rain = 0
KDO1 232014Z 01010KT 16/11 A3006 RMK A01 T01610112  RH  073%=      5-min Rain = 0
KDO1 232015Z 36008KT 16/11 A3006 RMK A01 T01610114  RH  074%=      5-min Rain = 0
KDO1 232016Z 35008KT 16/11 A3006 RMK A01 T01620114  RH  073%=      5-min Rain = 0
KDO1 232017Z 35008KT 16/11 A3006 RMK A01 T01610114  RH  074%=      5-min Rain = 0
KDO1 232018Z 35009KT 16/11 A3006 RMK A01 T01610112  RH  073%=      5-min Rain = 0
KDO1 232019Z 00009KT 16/11 A3006 RMK A01 T01600113  RH  074%=      5-min Rain = 0
KDO1 232020Z 01009KT 16/11 A3006 RMK A01 T01600111  RH  072%=      5-min Rain = 0
KDO1 232021Z 00009KT 16/11 A3006 RMK A01 T01600108  RH  071%=      5-min Rain = 0
KDO1 232022Z 01007KT 16/11 A3006 RMK A01 T01590113  RH  074%=      5-min Rain = 0
KDO1 232023Z 35005KT 16/11 A3005 RMK A01 T01600114  RH  074%=      5-min Rain = 0
KDO1 232024Z 02005KT 16/12 A3005 RMK A01 T01620116  RH  074%=      5-min Rain = 0
KDO1 232025Z 04008KT 16/12 A3005 RMK A01 T01630115  RH  073%=      5-min Rain = 0
KDO1 232026Z 04008KT 17/12 A3005 RMK A01 T01650115  RH  073%=      5-min Rain = 0
KDO1 232027Z 02006KT 17/12 A3005 RMK A01 T01650117  RH  073%=      5-min Rain = 0
KDO1 232028Z 01006KT 17/12 A3005 RMK A01 T01660117  RH  072%=      5-min Rain = 0
KDO1 232029Z 35006KT 17/12 A3005 RMK A01 T01670120  RH  074%=      5-min Rain = 0
KDO1 232030Z 35007KT 17/12 A3005 RMK A01 T01680117  RH  072%=      5-min Rain = 0
KDO1 232031Z 36007KT 17/12 A3005 RMK A01 T01680115  RH  071%=      5-min Rain = 0
KDO1 232032Z 02006KT 17/12 A3005 RMK A01 T01660115  RH  072%=      5-min Rain = 0
KDO1 232033Z 02007KT 17/11 A3005 RMK A01 T01660114  RH  071%=      5-min Rain = 0
KDO1 232034Z 03009KT 17/12 A3005 RMK A01 T01660115  RH  072%=      5-min Rain = 0
KDO1 232035Z 02008KT 17/11 A3005 RMK A01 T01650113  RH  071%=      5-min Rain = 0
KDO1 232036Z 03007KT 16/12 A3005 RMK A01 T01640115  RH  072%=      5-min Rain = 0
KDO1 232037Z 05009KT 16/11 A3005 RMK A01 T01640111  RH  071%=      5-min Rain = 0
KDO1 232038Z 03011KT 16/11 A3005 RMK A01 T01640113  RH  072%=      5-min Rain = 0
KDO1 232039Z 03009KT 16/11 A3005 RMK A01 T01640111  RH  071%=      5-min Rain = 0
KDO1 232040Z 03010KT 16/11 A3005 RMK A01 T01640112  RH  071%=      5-min Rain = 0
KDO1 232041Z 02008KT 16/11 A3005 RMK A01 T01640111  RH  071%=      5-min Rain = 0
KDO1 232042Z 03007KT 16/11 A3005 RMK A01 T01640110  RH  071%=      5-min Rain = 0
KDO1 232043Z 03004KT 16/11 A3005 RMK A01 T01640112  RH  071%=      5-min Rain = 0
KDO1 232044Z 04006KT 17/12 A3005 RMK A01 T01670115  RH  071%=      5-min Rain = 0
KDO1 232045Z 04007KT 17/11 A3005 RMK A01 T01680112  RH  070%=      5-min Rain = 0
KDO1 232046Z 04010KT 17/11 A3005 RMK A01 T01680114  RH  070%=      5-min Rain = 0
KDO1 232047Z 04009KT 17/11 A3005 RMK A01 T01670110  RH  069%=      5-min Rain = 0
KDO1 232048Z 05008KT 17/11 A3005 RMK A01 T01660111  RH  070%=      5-min Rain = 0
KDO1 232049Z 03009KT 17/11 A3005 RMK A01 T01660113  RH  071%=      5-min Rain = 0
KDO1 232050Z 03009KT 17/11 A3005 RMK A01 T01670111  RH  070%=      5-min Rain = 0
KDO1 232051Z 04006KT 17/11 A3005 RMK A01 T01670110  RH  069%=      5-min Rain = 0
KDO1 232052Z 04006KT 17/11 A3005 RMK A01 T01670111  RH  070%=      5-min Rain = 0
KDO1 232053Z 04006KT 17/11 A3005 RMK A01 T01660110  RH  069%=      5-min Rain = 0
KDO1 232054Z 03006KT 17/11 A3005 RMK A01 T01660112  RH  070%=      5-min Rain = 0
KDO1 232055Z 00006KT 17/11 A3005 RMK A01 T01660112  RH  070%=      5-min Rain = 0
KDO1 232056Z 00007KT 17/11 A3005 RMK A01 T01670114  RH  071%=      5-min Rain = 0
KDO1 232057Z 01006KT 17/11 A3005 RMK A01 T01670111  RH  070%=      5-min Rain = 0
KDO1 232058Z 01006KT 17/11 A3005 RMK A01 T01660113  RH  071%=      5-min Rain = 0
KDO1 232059Z 02008KT 17/11 A3005 RMK A01 T01660113  RH  071%=      5-min Rain = 0
KDO1 232100Z 04008KT 17/11 A3005 RMK A01 T01660113  RH  071%=      5-min Rain = 0
KDO1 232101Z 04009KT 17/11 A3005 RMK A01 T01650113  RH  071%=      5-min Rain = 0
KDO1 232102Z 04008KT 17/11 A3005 RMK A01 T01650113  RH  071%=      5-min Rain = 0
KDO1 232103Z 04006KT 16/11 A3005 RMK A01 T01640114  RH  072%=      5-min Rain = 0
KDO1 232104Z 03007KT 16/12 A3005 RMK A01 T01640115  RH  073%=      5-min Rain = 0
KDO1 232105Z 03005KT 16/11 A3005 RMK A01 T01640114  RH  072%=      5-min Rain = 0
KDO1 232106Z 03008KT 16/11 A3005 RMK A01 T01640113  RH  072%=      5-min Rain = 0
KDO1 232107Z 02008KT 16/11 A3005 RMK A01 T01640112  RH  071%=      5-min Rain = 0
KDO1 232108Z 03008KT 16/11 A3005 RMK A01 T01640114  RH  072%=      5-min Rain = 0
KDO1 232109Z 03009KT 16/11 A3005 RMK A01 T01630113  RH  072%=      5-min Rain = 0
KDO1 232110Z 02008KT 16/11 A3005 RMK A01 T01640111  RH  071%=      5-min Rain = 0
KDO1 232111Z 01007KT 16/11 A3005 RMK A01 T01640110  RH  071%=      5-min Rain = 0
KDO1 232112Z 02005KT 16/11 A3005 RMK A01 T01630111  RH  071%=      5-min Rain = 0
KDO1 232113Z 01004KT 16/12 A3005 RMK A01 T01640116  RH  073%=      5-min Rain = 0
KDO1 232114Z 03007KT 17/12 A3005 RMK A01 T01660120  RH  074%=      5-min Rain = 0
KDO1 232115Z 02005KT 17/12 A3005 RMK A01 T01670115  RH  072%=      5-min Rain = 0
KDO1 232116Z 03006KT 17/12 A3005 RMK A01 T01670116  RH  072%=      5-min Rain = 0
KDO1 232117Z 03005KT 17/11 A3005 RMK A01 T01670110  RH  069%=      5-min Rain = 0
KDO1 232118Z 04005KT 17/11 A3005 RMK A01 T01660114  RH  071%=      5-min Rain = 0
KDO1 232119Z 03008KT 17/12 A3005 RMK A01 T01660115  RH  072%=      5-min Rain = 0
KDO1 232120Z 03007KT 17/12 A3005 RMK A01 T01670115  RH  072%=      5-min Rain = 0
KDO1 232121Z 02007KT 17/12 A3005 RMK A01 T01670115  RH  071%=      5-min Rain = 0
KDO1 232122Z 04008KT 17/11 A3005 RMK A01 T01670114  RH  071%=      5-min Rain = 0
KDO1 232123Z 04008KT 17/11 A3005 RMK A01 T01670113  RH  070%=      5-min Rain = 0
KDO1 232124Z 03008KT 17/11 A3005 RMK A01 T01670113  RH  070%=      5-min Rain = 0
KDO1 232125Z 02009KT 17/11 A3005 RMK A01 T01660111  RH  070%=      5-min Rain = 0
KDO1 232126Z 02006KT 17/11 A3005 RMK A01 T01650111  RH  070%=      5-min Rain = 0
KDO1 232127Z 01005KT 17/11 A3005 RMK A01 T01650113  RH  071%=      5-min Rain = 0
KDO1 232128Z 02005KT 17/11 A3005 RMK A01 T01660114  RH  071%=      5-min Rain = 0
KDO1 232129Z 01006KT 17/11 A3004 RMK A01 T01670113  RH  071%=      5-min Rain = 0
KDO1 232130Z 03004KT 17/12 A3004 RMK A01 T01670115  RH  072%=      5-min Rain = 0
KDO1 232131Z 04007KT 17/12 A3004 RMK A01 T01680116  RH  072%=      5-min Rain = 0
KDO1 232132Z 02009KT 17/11 A3005 RMK A01 T01690113  RH  070%=      5-min Rain = 0
KDO1 232133Z 03008KT 17/11 A3005 RMK A01 T01680111  RH  069%=      5-min Rain = 0
KDO1 232134Z 04008KT 17/11 A3005 RMK A01 T01670113  RH  070%=      5-min Rain = 0
KDO1 232135Z 05007KT 17/11 A3005 RMK A01 T01660114  RH  071%=      5-min Rain = 0
KDO1 232136Z 05006KT 17/12 A3005 RMK A01 T01650115  RH  072%=      5-min Rain = 0
KDO1 232137Z 05005KT 17/12 A3004 RMK A01 T01650118  RH  073%=      5-min Rain = 0
KDO1 232138Z 05004KT 17/12 A3004 RMK A01 T01660120  RH  074%=      5-min Rain = 0
KDO1 232139Z 05010KT 17/12 A3004 RMK A01 T01670119  RH  073%=      5-min Rain = 0
KDO1 232140Z 01007KT 17/12 A3004 RMK A01 T01670117  RH  072%=      5-min Rain = 0
KDO1 232141Z 03007KT 17/11 A3004 RMK A01 T01670114  RH  071%=      5-min Rain = 0
KDO1 232142Z 02007KT 17/11 A3004 RMK A01 T01670113  RH  071%=      5-min Rain = 0
KDO1 232143Z 04007KT 17/11 A3004 RMK A01 T01660110  RH  070%=      5-min Rain = 0
KDO1 232144Z 04006KT 17/11 A3004 RMK A01 T01650110  RH  070%=      5-min Rain = 0
KDO1 232145Z 04006KT 17/11 A3004 RMK A01 T01650113  RH  071%=      5-min Rain = 0
KDO1 232146Z 05006KT 17/12 A3004 RMK A01 T01650116  RH  072%=      5-min Rain = 0
KDO1 232147Z 04005KT 17/12 A3004 RMK A01 T01660118  RH  074%=      5-min Rain = 0
KDO1 232148Z 04005KT 17/12 A3004 RMK A01 T01670117  RH  073%=      5-min Rain = 0
KDO1 232149Z 04005KT 17/12 A3004 RMK A01 T01660115  RH  072%=      5-min Rain = 0
KDO1 232150Z 04008KT 17/12 A3005 RMK A01 T01670119  RH  073%=      5-min Rain = 0
KDO1 232151Z 03007KT 17/11 A3005 RMK A01 T01670112  RH  070%=      5-min Rain = 0
KDO1 232152Z 03008KT 17/11 A3005 RMK A01 T01660111  RH  070%=      5-min Rain = 0
KDO1 232153Z 03006KT 17/11 A3005 RMK A01 T01660111  RH  070%=      5-min Rain = 0
KDO1 232154Z 04007KT 17/11 A3005 RMK A01 T01650112  RH  071%=      5-min Rain = 0
KDO1 232155Z 03007KT 17/11 A3005 RMK A01 T01650109  RH  069%=      5-min Rain = 0
KDO1 232156Z 05006KT 17/11 A3005 RMK A01 T01650111  RH  070%=      5-min Rain = 0
KDO1 232157Z 04008KT 17/11 A3005 RMK A01 T01650112  RH  071%=      5-min Rain = 0
KDO1 232158Z 03006KT 17/11 A3005 RMK A01 T01650109  RH  070%=      5-min Rain = 0
KDO1 232159Z 03004KT 16/11 A3005 RMK A01 T01640110  RH  070%=      5-min Rain = 0
KDO1 232200Z 03004KT 16/12 A3005 RMK A01 T01640115  RH  072%=      5-min Rain = 0
KDO1 232201Z 03005KT 17/11 A3005 RMK A01 T01650113  RH  071%=      5-min Rain = 0
KDO1 232202Z 03004KT 17/12 A3005 RMK A01 T01660116  RH  072%=      5-min Rain = 0
KDO1 232203Z 04004KT 17/12 A3005 RMK A01 T01660116  RH  072%=      5-min Rain = 0
KDO1 232204Z 04006KT 17/11 A3005 RMK A01 T01670114  RH  071%=      5-min Rain = 0
KDO1 232205Z 05004KT 17/11 A3005 RMK A01 T01670110  RH  069%=      5-min Rain = 0
KDO1 232206Z 05006KT 17/11 A3005 RMK A01 T01660112  RH  070%=      5-min Rain = 0
KDO1 232207Z 04008KT 17/11 A3005 RMK A01 T01660111  RH  070%=      5-min Rain = 0
KDO1 232208Z 04007KT 17/11 A3005 RMK A01 T01660110  RH  070%=      5-min Rain = 0
KDO1 232209Z 04005KT 17/11 A3005 RMK A01 T01660113  RH  071%=      5-min Rain = 0
KDO1 232210Z 03004KT 17/11 A3005 RMK A01 T01660114  RH  072%=      5-min Rain = 0
KDO1 232211Z 04006KT 17/11 A3005 RMK A01 T01660111  RH  070%=      5-min Rain = 0
KDO1 232212Z 05006KT 17/11 A3005 RMK A01 T01660110  RH  069%=      5-min Rain = 0
KDO1 232213Z 05005KT 17/11 A3005 RMK A01 T01650111  RH  070%=      5-min Rain = 0
KDO1 232214Z 05007KT 17/11 A3005 RMK A01 T01650111  RH  071%=      5-min Rain = 0
KDO1 232215Z 07006KT 17/11 A3005 RMK A01 T01650114  RH  072%=      5-min Rain = 0
KDO1 232216Z 05006KT 17/12 A3005 RMK A01 T01650115  RH  073%=      5-min Rain = 0
KDO1 232217Z 07007KT 17/12 A3005 RMK A01 T01650116  RH  073%=      5-min Rain = 0
KDO1 232218Z 06007KT 17/12 A3005 RMK A01 T01650116  RH  072%=      5-min Rain = 0
KDO1 232219Z 07008KT 17/12 A3005 RMK A01 T01650116  RH  072%=      5-min Rain = 0
KDO1 232220Z 07006KT 17/11 A3005 RMK A01 T01650113  RH  071%=      5-min Rain = 0
KDO1 232221Z 08005KT 17/11 A3005 RMK A01 T01650114  RH  072%=      5-min Rain = 0
KDO1 232222Z 06005KT 16/11 A3005 RMK A01 T01640114  RH  072%=      5-min Rain = 0
KDO1 232223Z 04007KT 16/11 A3005 RMK A01 T01640114  RH  072%=      5-min Rain = 0
KDO1 232224Z 04007KT 16/11 A3005 RMK A01 T01640112  RH  072%=      5-min Rain = 0
KDO1 232225Z 04008KT 16/11 A3005 RMK A01 T01640111  RH  071%=      5-min Rain = 0
KDO1 232226Z 04008KT 16/11 A3005 RMK A01 T01630109  RH  070%=      5-min Rain = 0
KDO1 232227Z 04007KT 16/11 A3005 RMK A01 T01620107  RH  070%=      5-min Rain = 0
KDO1 232228Z 04005KT 16/11 A3005 RMK A01 T01620110  RH  071%=      5-min Rain = 0
KDO1 232229Z 05006KT 16/11 A3005 RMK A01 T01620113  RH  072%=      5-min Rain = 0
KDO1 232230Z 06006KT 16/11 A3004 RMK A01 T01620114  RH  073%=      5-min Rain = 0
KDO1 232231Z 04007KT 16/11 A3004 RMK A01 T01620114  RH  073%=      5-min Rain = 0
KDO1 232232Z 03007KT 16/11 A3004 RMK A01 T01620112  RH  072%=      5-min Rain = 0
KDO1 232233Z 05006KT 16/12 A3004 RMK A01 T01620115  RH  073%=      5-min Rain = 0
KDO1 232234Z 04006KT 16/12 A3004 RMK A01 T01620115  RH  073%=      5-min Rain = 0
KDO1 232235Z 04007KT 16/12 A3004 RMK A01 T01620115  RH  074%=      5-min Rain = 0
KDO1 232236Z 03008KT 16/11 A3004 RMK A01 T01620111  RH  072%=      5-min Rain = 0
KDO1 232237Z 04006KT 16/11 A3004 RMK A01 T01620113  RH  072%=      5-min Rain = 0
KDO1 232238Z 04007KT 16/11 A3004 RMK A01 T01620114  RH  073%=      5-min Rain = 0
KDO1 232239Z 04006KT 16/11 A3004 RMK A01 T01620111  RH  071%=      5-min Rain = 0
KDO1 232240Z 04006KT 16/11 A3004 RMK A01 T01620112  RH  072%=      5-min Rain = 0
KDO1 232241Z 04006KT 16/11 A3004 RMK A01 T01620111  RH  072%=      5-min Rain = 0
KDO1 232242Z 04007KT 16/11 A3004 RMK A01 T01620110  RH  072%=      5-min Rain = 0
KDO1 232243Z 04006KT 16/11 A3004 RMK A01 T01620111  RH  072%=      5-min Rain = 0
KDO1 232244Z 04006KT 16/11 A3004 RMK A01 T01620111  RH  072%=      5-min Rain = 0
KDO1 232245Z 04006KT 16/11 A3004 RMK A01 T01610112  RH  072%=      5-min Rain = 0
KDO1 232246Z 04006KT 16/11 A3004 RMK A01 T01610113  RH  073%=      5-min Rain = 0
KDO1 232247Z 04007KT 16/11 A3004 RMK A01 T01610113  RH  073%=      5-min Rain = 0
KDO1 232248Z 03006KT 16/12 A3004 RMK A01 T01610115  RH  074%=      5-min Rain = 0
KDO1 232249Z 04007KT 16/11 A3004 RMK A01 T01610114  RH  074%=      5-min Rain = 0
KDO1 232250Z 04007KT 16/11 A3004 RMK A01 T01610114  RH  074%=      5-min Rain = 0
KDO1 232251Z 04005KT 16/11 A3004 RMK A01 T01610114  RH  074%=      5-min Rain = 0
KDO1 232252Z 04005KT 16/12 A3005 RMK A01 T01600115  RH  074%=      5-min Rain = 0
KDO1 232253Z 04003KT 16/12 A3005 RMK A01 T01600115  RH  074%=      5-min Rain = 0
KDO1 232254Z 04004KT 16/12 A3005 RMK A01 T01600116  RH  075%=      5-min Rain = 0
KDO1 232255Z 03005KT 16/11 A3005 RMK A01 T01600114  RH  074%=      5-min Rain = 0
KDO1 232256Z 04005KT 16/11 A3004 RMK A01 T01600114  RH  074%=      5-min Rain = 0
KDO1 232257Z 03005KT 16/11 A3004 RMK A01 T01600114  RH  074%=      5-min Rain = 0
KDO1 232258Z 04006KT 16/11 A3004 RMK A01 T01600113  RH  074%=      5-min Rain = 0
KDO1 232259Z 04005KT 16/11 A3004 RMK A01 T01600114  RH  074%=      5-min Rain = 0
KDO1 232300Z 04004KT 16/11 A3004 RMK A01 T01600114  RH  074%=      5-min Rain = 0
KDO1 232301Z 04006KT 16/11 A3004 RMK A01 T01600113  RH  074%=      5-min Rain = 0
KDO1 232302Z 05005KT 16/11 A3004 RMK A01 T01600111  RH  073%=      5-min Rain = 0
KDO1 232303Z 05004KT 16/11 A3004 RMK A01 T01600113  RH  074%=      5-min Rain = 0
KDO1 232304Z 06004KT 16/12 A3004 RMK A01 T01600115  RH  074%=      5-min Rain = 0
KDO1 232305Z 06005KT 16/11 A3004 RMK A01 T01600114  RH  074%=      5-min Rain = 0
KDO1 232306Z 05005KT 16/11 A3004 RMK A01 T01600114  RH  074%=      5-min Rain = 0
KDO1 232307Z 05005KT 16/11 A3004 RMK A01 T01600114  RH  074%=      5-min Rain = 0
KDO1 232308Z 04005KT 16/11 A3004 RMK A01 T01600113  RH  074%=      5-min Rain = 0
KDO1 232309Z 05006KT 16/11 A3004 RMK A01 T01600114  RH  074%=      5-min Rain = 0
KDO1 232310Z 04006KT 16/11 A3004 RMK A01 T01600114  RH  074%=      5-min Rain = 0
KDO1 232311Z 04005KT 16/11 A3004 RMK A01 T01600114  RH  074%=      5-min Rain = 0
KDO1 232312Z 04005KT 16/11 A3004 RMK A01 T01600114  RH  074%=      5-min Rain = 0
KDO1 232313Z 02005KT 16/11 A3004 RMK A01 T01600113  RH  074%=      5-min Rain = 0
KDO1 232314Z 03006KT 16/11 A3004 RMK A01 T01590111  RH  073%=      5-min Rain = 0
KDO1 232315Z 04004KT 16/11 A3004 RMK A01 T01590112  RH  073%=      5-min Rain = 0
KDO1 232316Z 05004KT 16/12 A3004 RMK A01 T01590116  RH  075%=      5-min Rain = 0
KDO1 232317Z 04005KT 16/12 A3004 RMK A01 T01590115  RH  075%=      5-min Rain = 0
KDO1 232318Z 04005KT 16/11 A3004 RMK A01 T01590114  RH  074%=      5-min Rain = 0
KDO1 232319Z 03005KT 16/11 A3004 RMK A01 T01590114  RH  074%=      5-min Rain = 0
KDO1 232320Z 04006KT 16/11 A3004 RMK A01 T01590113  RH  074%=      5-min Rain = 0
KDO1 232321Z 04006KT 16/11 A3003 RMK A01 T01590112  RH  073%=      5-min Rain = 0
KDO1 232322Z 04005KT 16/11 A3003 RMK A01 T01590112  RH  073%=      5-min Rain = 0
KDO1 232323Z 05005KT 16/11 A3003 RMK A01 T01600114  RH  074%=      5-min Rain = 0
KDO1 232324Z 04006KT 16/11 A3003 RMK A01 T01590113  RH  074%=      5-min Rain = 0
KDO1 232325Z 04005KT 16/11 A3003 RMK A01 T01600113  RH  074%=      5-min Rain = 0
KDO1 232326Z 04004KT 16/11 A3003 RMK A01 T01590113  RH  074%=      5-min Rain = 0
KDO1 232327Z 04004KT 16/12 A3003 RMK A01 T01590115  RH  075%=      5-min Rain = 0
KDO1 232328Z 05005KT 16/12 A3003 RMK A01 T01600116  RH  075%=      5-min Rain = 0
KDO1 232329Z 05006KT 16/11 A3003 RMK A01 T01600113  RH  074%=      5-min Rain = 0
KDO1 232330Z 04004KT 16/11 A3003 RMK A01 T01600112  RH  073%=      5-min Rain = 0
KDO1 232331Z 04005KT 16/11 A3003 RMK A01 T01600114  RH  074%=      5-min Rain = 0
KDO1 232332Z 05005KT 16/11 A3003 RMK A01 T01600113  RH  074%=      5-min Rain = 0
KDO1 232333Z 04006KT 16/11 A3003 RMK A01 T01600112  RH  073%=      5-min Rain = 0
KDO1 232334Z 05004KT 16/11 A3003 RMK A01 T01600111  RH  073%=      5-min Rain = 0
KDO1 232335Z 06005KT 16/12 A3003 RMK A01 T01600115  RH  075%=      5-min Rain = 0
KDO1 232336Z 06006KT 16/11 A3003 RMK A01 T01600113  RH  074%=      5-min Rain = 0
KDO1 232337Z 04006KT 16/11 A3003 RMK A01 T01600113  RH  074%=      5-min Rain = 0
KDO1 232338Z 05006KT 16/11 A3003 RMK A01 T01600112  RH  073%=      5-min Rain = 0
KDO1 232339Z 05004KT 16/11 A3003 RMK A01 T01600113  RH  074%=      5-min Rain = 0
KDO1 232340Z 05006KT 16/12 A3003 RMK A01 T01600115  RH  075%=      5-min Rain = 0
KDO1 232341Z 04007KT 16/11 A3003 RMK A01 T01600114  RH  074%=      5-min Rain = 0
KDO1 232342Z 04007KT 16/11 A3003 RMK A01 T01600113  RH  074%=      5-min Rain = 0
KDO1 232343Z 05006KT 16/11 A3003 RMK A01 T01600114  RH  074%=      5-min Rain = 0
KDO1 232344Z 06008KT 16/11 A3003 RMK A01 T01600113  RH  074%=      5-min Rain = 0
KDO1 232345Z 06006KT 16/11 A3003 RMK A01 T01600113  RH  074%=      5-min Rain = 0
KDO1 232346Z 07006KT 16/12 A3003 RMK A01 T01600116  RH  075%=      5-min Rain = 0
KDO1 232347Z 07006KT 16/12 A3003 RMK A01 T01590116  RH  075%=      5-min Rain = 0
KDO1 232348Z 07006KT 16/12 A3003 RMK A01 T01590116  RH  076%=      5-min Rain = 0
KDO1 232349Z 06007KT 16/12 A3003 RMK A01 T01590115  RH  075%=      5-min Rain = 0
KDO1 232350Z 06007KT 16/11 A3003 RMK A01 T01590113  RH  074%=      5-min Rain = 0
KDO1 232351Z 06007KT 16/11 A3003 RMK A01 T01590113  RH  074%=      5-min Rain = 0
KDO1 232352Z 05007KT 16/11 A3003 RMK A01 T01580113  RH  074%=      5-min Rain = 0
KDO1 232353Z 06005KT 16/12 A3003 RMK A01 T01580115  RH  076%=      5-min Rain = 0
KDO1 232354Z 07005KT 16/12 A3003 RMK A01 T01580117  RH  076%=      5-min Rain = 0
KDO1 232355Z 09005KT 16/12 A3003 RMK A01 T01580118  RH  077%=      5-min Rain = 0
KDO1 232356Z 09004KT 16/12 A3003 RMK A01 T01580118  RH  077%=      5-min Rain = 0
KDO1 232357Z 10004KT 16/12 A3003 RMK A01 T01580123  RH  079%=      5-min Rain = 0
KDO1 232358Z 09005KT 16/12 A3003 RMK A01 T01580124  RH  080%=      5-min Rain = 0
KDO1 232359Z 10004KT 16/13 A3003 RMK A01 T01570125  RH  081%=      5-min Rain = 0
KDO1 240000Z 11003KT 16/13 A3003 RMK A01 T01570126  RH  082%=      5-min Rain = 0
KDO1 240001Z 09004KT 16/13 A3003 RMK A01 T01560128  RH  083%=      5-min Rain = 0
KDO1 240002Z 09004KT 16/13 A3003 RMK A01 T01560128  RH  083%=      5-min Rain = 0
KDO1 240003Z 10007KT 16/13 A3003 RMK A01 T01560125  RH  082%=      5-min Rain = 0
KDO1 240004Z 10006KT 16/13 A3003 RMK A01 T01560125  RH  082%=      5-min Rain = 0
KDO1 240005Z 10005KT 16/13 A3003 RMK A01 T01550125  RH  082%=      5-min Rain = 0
KDO1 240006Z 09005KT 16/13 A3003 RMK A01 T01550126  RH  083%=      5-min Rain = 0
KDO1 240007Z 08006KT 16/12 A3003 RMK A01 T01550124  RH  082%=      5-min Rain = 0
KDO1 240008Z 09006KT 16/12 A3003 RMK A01 T01550124  RH  082%=      5-min Rain = 0
KDO1 240009Z 08006KT 16/12 A3003 RMK A01 T01550122  RH  081%=      5-min Rain = 0
KDO1 240010Z 08005KT 16/12 A3003 RMK A01 T01550123  RH  081%=      5-min Rain = 0
KDO1 240011Z 09004KT 16/12 A3003 RMK A01 T01550124  RH  081%=      5-min Rain = 0
KDO1 240012Z 09005KT 16/13 A3003 RMK A01 T01550125  RH  082%=      5-min Rain = 0
KDO1 240013Z 08005KT 16/12 A3003 RMK A01 T01550124  RH  082%=      5-min Rain = 0
KDO1 240014Z 08004KT 16/13 A3003 RMK A01 T01550125  RH  082%=      5-min Rain = 0
KDO1 240015Z 08005KT 16/13 A3003 RMK A01 T01550126  RH  083%=      5-min Rain = 0
KDO1 240016Z 08004KT 16/13 A3003 RMK A01 T01550125  RH  082%=      5-min Rain = 0
KDO1 240017Z 08005KT 16/13 A3003 RMK A01 T01550125  RH  082%=      5-min Rain = 0
KDO1 240018Z 08004KT 16/12 A3003 RMK A01 T01550124  RH  081%=      5-min Rain = 0
KDO1 240019Z 07005KT 16/13 A3003 RMK A01 T01550125  RH  082%=      5-min Rain = 0
KDO1 240020Z 08005KT 16/12 A3003 RMK A01 T01550123  RH  081%=      5-min Rain = 0
KDO1 240021Z 08006KT 16/12 A3003 RMK A01 T01550122  RH  081%=      5-min Rain = 0
KDO1 240022Z 08005KT 16/12 A3003 RMK A01 T01550121  RH  080%=      5-min Rain = 0
KDO1 240023Z 08004KT 16/12 A3003 RMK A01 T01550121  RH  081%=      5-min Rain = 0
KDO1 240024Z 08004KT 15/12 A3003 RMK A01 T01540122  RH  081%=      5-min Rain = 0
KDO1 240025Z 09004KT 15/12 A3003 RMK A01 T01540121  RH  081%=      5-min Rain = 0
KDO1 240026Z 08004KT 15/12 A3003 RMK A01 T01540122  RH  081%=      5-min Rain = 0
KDO1 240027Z 08004KT 15/12 A3003 RMK A01 T01540123  RH  082%=      5-min Rain = 0
KDO1 240028Z 08003KT 15/12 A3003 RMK A01 T01540123  RH  082%=      5-min Rain = 0
KDO1 240029Z 08004KT 15/12 A3003 RMK A01 T01540124  RH  082%=      5-min Rain = 0
KDO1 240030Z 07004KT 15/12 A3003 RMK A01 T01540122  RH  081%=      5-min Rain = 0
KDO1 240031Z 07003KT 15/12 A3003 RMK A01 T01540119  RH  080%=      5-min Rain = 0
KDO1 240032Z 07003KT 15/12 A3003 RMK A01 T01540119  RH  080%=      5-min Rain = 0
KDO1 240033Z 08004KT 15/12 A3003 RMK A01 T01540120  RH  080%=      5-min Rain = 0
KDO1 240034Z 08004KT 15/12 A3003 RMK A01 T01540121  RH  081%=      5-min Rain = 0
KDO1 240035Z 08004KT 15/12 A3003 RMK A01 T01540122  RH  081%=      5-min Rain = 0
KDO1 240036Z 09004KT 15/12 A3003 RMK A01 T01540121  RH  081%=      5-min Rain = 0
KDO1 240037Z 08005KT 15/12 A3003 RMK A01 T01530122  RH  081%=      5-min Rain = 0
KDO1 240038Z 08004KT 15/12 A3003 RMK A01 T01530120  RH  081%=      5-min Rain = 0
KDO1 240039Z 07004KT 15/12 A3003 RMK A01 T01530120  RH  081%=      5-min Rain = 0
KDO1 240040Z 07004KT 15/12 A3003 RMK A01 T01530121  RH  081%=      5-min Rain = 0
KDO1 240041Z 07005KT 15/12 A3003 RMK A01 T01530120  RH  081%=      5-min Rain = 0
KDO1 240042Z 06005KT 15/12 A3003 RMK A01 T01520120  RH  081%=      5-min Rain = 0
KDO1 240043Z 06005KT 15/12 A3003 RMK A01 T01530120  RH  081%=      5-min Rain = 0
KDO1 240044Z 07004KT 15/12 A3003 RMK A01 T01520117  RH  080%=      5-min Rain = 0
KDO1 240045Z 06003KT 15/12 A3003 RMK A01 T01520119  RH  081%=      5-min Rain = 0
KDO1 240046Z 06003KT 15/12 A3003 RMK A01 T01520121  RH  082%=      5-min Rain = 0
KDO1 240047Z 06003KT 15/12 A3003 RMK A01 T01520121  RH  082%=      5-min Rain = 0
KDO1 240048Z 06003KT 15/12 A3003 RMK A01 T01520123  RH  083%=      5-min Rain = 0
KDO1 240049Z 06004KT 15/12 A3003 RMK A01 T01520123  RH  083%=      5-min Rain = 0
KDO1 240050Z 06004KT 15/12 A3003 RMK A01 T01520122  RH  082%=      5-min Rain = 0
KDO1 240051Z 06004KT 15/12 A3003 RMK A01 T01520120  RH  082%=      5-min Rain = 0
KDO1 240052Z 06003KT 15/12 A3003 RMK A01 T01510120  RH  082%=      5-min Rain = 0
KDO1 240053Z 06003KT 15/12 A3003 RMK A01 T01510122  RH  083%=      5-min Rain = 0
KDO1 240054Z 05003KT 15/12 A3002 RMK A01 T01510122  RH  083%=      5-min Rain = 0
KDO1 240055Z 05004KT 15/12 A3002 RMK A01 T01510120  RH  082%=      5-min Rain = 0
KDO1 240056Z 04005KT 15/12 A3002 RMK A01 T01510118  RH  081%=      5-min Rain = 0
KDO1 240057Z 04004KT 15/12 A3002 RMK A01 T01510118  RH  081%=      5-min Rain = 0
KDO1 240058Z 04003KT 15/12 A3002 RMK A01 T01510120  RH  082%=      5-min Rain = 0
KDO1 240059Z 04003KT 15/12 A3002 RMK A01 T01500121  RH  083%=      5-min Rain = 0
KDO1 240100Z 04003KT 15/12 A3002 RMK A01 T01510122  RH  083%=      5-min Rain = 0
KDO1 240101Z 04004KT 15/12 A3002 RMK A01 T01510123  RH  083%=      5-min Rain = 0
KDO1 240102Z 04004KT 15/12 A3002 RMK A01 T01500122  RH  083%=      5-min Rain = 0
KDO1 240103Z 03004KT 15/12 A3002 RMK A01 T01500121  RH  083%=      5-min Rain = 0
KDO1 240104Z 03003KT 15/12 A3002 RMK A01 T01500122  RH  083%=      5-min Rain = 0
KDO1 240105Z 03003KT 15/12 A3002 RMK A01 T01500122  RH  084%=      5-min Rain = 0
KDO1 240106Z 03003KT 15/12 A3002 RMK A01 T01500121  RH  083%=      5-min Rain = 0
KDO1 240107Z 03003KT 15/12 A3002 RMK A01 T01500120  RH  082%=      5-min Rain = 0
KDO1 240108Z 03003KT 15/12 A3002 RMK A01 T01490119  RH  082%=      5-min Rain = 0
KDO1 240109Z 03003KT 15/12 A3002 RMK A01 T01490120  RH  083%=      5-min Rain = 0
KDO1 240110Z 03003KT 15/12 A3002 RMK A01 T01490122  RH  084%=      5-min Rain = 0
KDO1 240111Z 03003KT 15/12 A3003 RMK A01 T01490122  RH  084%=      5-min Rain = 0
KDO1 240112Z 03003KT 15/12 A3003 RMK A01 T01490122  RH  084%=      5-min Rain = 0
KDO1 240113Z 03003KT 15/12 A3003 RMK A01 T01480121  RH  084%=      5-min Rain = 0
KDO1 240114Z 04003KT 15/12 A3003 RMK A01 T01480122  RH  084%=      5-min Rain = 0
KDO1 240115Z 04003KT 15/12 A3003 RMK A01 T01480122  RH  084%=      5-min Rain = 0
KDO1 240116Z 05002KT 15/12 A3003 RMK A01 T01480122  RH  084%=      5-min Rain = 0
KDO1 240117Z 05002KT 15/12 A3003 RMK A01 T01480123  RH  085%=      5-min Rain = 0
KDO1 240118Z 05003KT 15/12 A3003 RMK A01 T01480122  RH  084%=      5-min Rain = 0
KDO1 240119Z 05003KT 15/12 A3003 RMK A01 T01480122  RH  084%=      5-min Rain = 0
KDO1 240120Z 04003KT 15/12 A3003 RMK A01 T01480122  RH  084%=      5-min Rain = 0
KDO1 240121Z 04003KT 15/12 A3003 RMK A01 T01480121  RH  084%=      5-min Rain = 0
KDO1 240122Z 04003KT 15/12 A3003 RMK A01 T01480121  RH  084%=      5-min Rain = 0
KDO1 240123Z 03003KT 15/12 A3003 RMK A01 T01480121  RH  084%=      5-min Rain = 0
KDO1 240124Z 03003KT 15/12 A3003 RMK A01 T01480121  RH  084%=      5-min Rain = 0
KDO1 240125Z 03003KT 15/12 A3003 RMK A01 T01480121  RH  084%=      5-min Rain = 0
KDO1 240126Z 02002KT 15/12 A3003 RMK A01 T01480122  RH  084%=      5-min Rain = 0
KDO1 240127Z 02002KT 15/12 A3004 RMK A01 T01480123  RH  085%=      5-min Rain = 0
KDO1 240128Z 02002KT 15/12 A3004 RMK A01 T01480124  RH  085%=      5-min Rain = 0
KDO1 240129Z 01002KT 15/12 A3004 RMK A01 T01480122  RH  084%=      5-min Rain = 0
KDO1 240130Z 01003KT 15/12 A3004 RMK A01 T01480122  RH  084%=      5-min Rain = 0
KDO1 240131Z 00003KT 15/12 A3004 RMK A01 T01470122  RH  085%=      5-min Rain = 0
KDO1 240132Z 00004KT 15/12 A3004 RMK A01 T01470124  RH  086%=      5-min Rain = 0
KDO1 240133Z 02002KT 15/13 A3004 RMK A01 T01470126  RH  087%=      5-min Rain = 0
KDO1 240134Z 01004KT 15/13 A3004 RMK A01 T01480125  RH  086%=      5-min Rain = 0
KDO1 240135Z 00004KT 15/13 A3004 RMK A01 T01470125  RH  086%=      5-min Rain = 0
KDO1 240136Z 00004KT 15/13 A3004 RMK A01 T01470127  RH  088%=      5-min Rain = 0
KDO1 240137Z 36004KT 15/13 A3004 RMK A01 T01470127  RH  088%=      5-min Rain = 0
KDO1 240138Z 35004KT 15/13 A3004 RMK A01 T01470127  RH  088%=      5-min Rain = 0
KDO1 240139Z 35004KT 15/13 A3004 RMK A01 T01470126  RH  087%=      5-min Rain = 0
KDO1 240140Z 35004KT 15/13 A3004 RMK A01 T01470125  RH  087%=      5-min Rain = 0
KDO1 240141Z 34005KT 15/13 A3004 RMK A01 T01460125  RH  087%=      5-min Rain = 0
KDO1 240142Z 36007KT 15/12 A3004 RMK A01 T01470123  RH  086%=      5-min Rain = 0
KDO1 240143Z 36006KT 15/12 A3004 RMK A01 T01470121  RH  085%=      5-min Rain = 0
KDO1 240144Z 00004KT 15/12 A3004 RMK A01 T01470122  RH  085%=      5-min Rain = 0
KDO1 240145Z 00004KT 15/12 A3004 RMK A01 T01470123  RH  086%=      5-min Rain = 0
KDO1 240146Z 01004KT 15/13 A3004 RMK A01 T01470125  RH  087%=      5-min Rain = 0
KDO1 240147Z 01005KT 15/12 A3004 RMK A01 T01470124  RH  086%=      5-min Rain = 0
KDO1 240148Z 01005KT 15/12 A3004 RMK A01 T01460123  RH  086%=      5-min Rain = 0
KDO1 240149Z 02004KT 15/12 A3004 RMK A01 T01460123  RH  086%=      5-min Rain = 0
KDO1 240150Z 02005KT 15/12 A3004 RMK A01 T01460123  RH  086%=      5-min Rain = 0
KDO1 240151Z 02005KT 15/12 A3004 RMK A01 T01460123  RH  086%=      5-min Rain = 0
KDO1 240152Z 02004KT 15/12 A3004 RMK A01 T01450122  RH  086%=      5-min Rain = 0
KDO1 240153Z 01004KT 15/12 A3004 RMK A01 T01450121  RH  086%=      5-min Rain = 0
KDO1 240154Z 01004KT 15/12 A3004 RMK A01 T01450121  RH  086%=      5-min Rain = 0
KDO1 240155Z 02004KT 15/12 A3004 RMK A01 T01450122  RH  086%=      5-min Rain = 0
KDO1 240156Z 01003KT 15/12 A3004 RMK A01 T01450122  RH  086%=      5-min Rain = 0
KDO1 240157Z 01004KT 15/12 A3004 RMK A01 T01450121  RH  086%=      5-min Rain = 0
KDO1 240158Z 00004KT 15/12 A3004 RMK A01 T01450121  RH  086%=      5-min Rain = 0
KDO1 240159Z 00005KT 14/12 A3004 RMK A01 T01440121  RH  086%=      5-min Rain = 0
KDO1 240200Z 01007KT 14/11 A3004 RMK A01 T01440114  RH  083%=      5-min Rain = 0
KDO1 240201Z 36005KT 14/11 A3004 RMK A01 T01440111  RH  081%=      5-min Rain = 0
KDO1 240202Z 35005KT 14/11 A3004 RMK A01 T01440113  RH  082%=      5-min Rain = 0
KDO1 240203Z 35005KT 14/11 A3004 RMK A01 T01430114  RH  082%=      5-min Rain = 0
KDO1 240204Z 35006KT 14/11 A3004 RMK A01 T01430114  RH  083%=      5-min Rain = 0
KDO1 240205Z 35005KT 14/11 A3004 RMK A01 T01420113  RH  083%=      5-min Rain = 0
KDO1 240206Z 35006KT 14/11 A3004 RMK A01 T01420112  RH  083%=      5-min Rain = 0
KDO1 240207Z 35006KT 14/11 A3004 RMK A01 T01410110  RH  082%=      5-min Rain = 0
KDO1 240208Z 35006KT 14/11 A3004 RMK A01 T01410108  RH  081%=      5-min Rain = 0
KDO1 240209Z 35008KT 14/10 A3004 RMK A01 T01400104  RH  079%=      5-min Rain = 0
KDO1 240210Z 35007KT 14/10 A3004 RMK A01 T01400097  RH  075%=      5-min Rain = 0
KDO1 240211Z 35006KT 14/10 A3004 RMK A01 T01410096  RH  074%=      5-min Rain = 0
KDO1 240212Z 35006KT 14/10 A3004 RMK A01 T01410096  RH  074%=      5-min Rain = 0
KDO1 240213Z 35005KT 14/10 A3004 RMK A01 T01410097  RH  075%=      5-min Rain = 0
KDO1 240214Z 35005KT 14/10 A3004 RMK A01 T01400098  RH  076%=      5-min Rain = 0
KDO1 240215Z 36005KT 14/10 A3004 RMK A01 T01390096  RH  075%=      5-min Rain = 0
KDO1 240216Z 35005KT 14/10 A3004 RMK A01 T01390096  RH  075%=      5-min Rain = 0
KDO1 240217Z 35005KT 14/10 A3004 RMK A01 T01380096  RH  076%=      5-min Rain = 0
KDO1 240218Z 35007KT 14/10 A3004 RMK A01 T01380095  RH  075%=      5-min Rain = 0
KDO1 240219Z 36005KT 14/09 A3004 RMK A01 T01380094  RH  075%=      5-min Rain = 0
KDO1 240220Z 36007KT 14/09 A3004 RMK A01 T01380094  RH  075%=      5-min Rain = 0
KDO1 240221Z 36006KT 14/09 A3004 RMK A01 T01370092  RH  074%=      5-min Rain = 0
KDO1 240222Z 00006KT 14/09 A3004 RMK A01 T01370091  RH  074%=      5-min Rain = 0
KDO1 240223Z 36006KT 14/09 A3004 RMK A01 T01370090  RH  073%=      5-min Rain = 0
KDO1 240224Z 36005KT 14/09 A3004 RMK A01 T01370089  RH  073%=      5-min Rain = 0
KDO1 240225Z 36006KT 14/09 A3004 RMK A01 T01370089  RH  073%=      5-min Rain = 0
KDO1 240226Z 01005KT 14/09 A3004 RMK A01 T01370089  RH  073%=      5-min Rain = 0
KDO1 240227Z 00005KT 14/09 A3004 RMK A01 T01360087  RH  072%=      5-min Rain = 0
KDO1 240228Z 01005KT 14/09 A3004 RMK A01 T01360087  RH  072%=      5-min Rain = 0
KDO1 240229Z 36004KT 14/09 A3004 RMK A01 T01350087  RH  073%=      5-min Rain = 0
KDO1 240230Z 00005KT 14/09 A3004 RMK A01 T01350088  RH  073%=      5-min Rain = 0
KDO1 240231Z 01004KT 13/09 A3004 RMK A01 T01340088  RH  073%=      5-min Rain = 0
KDO1 240232Z 36004KT 13/09 A3003 RMK A01 T01330087  RH  073%=      5-min Rain = 0
KDO1 240233Z 36005KT 13/09 A3003 RMK A01 T01330087  RH  074%=      5-min Rain = 0
KDO1 240234Z 35005KT 13/09 A3003 RMK A01 T01330087  RH  074%=      5-min Rain = 0
KDO1 240235Z 35005KT 13/09 A3003 RMK A01 T01320086  RH  073%=      5-min Rain = 0
KDO1 240236Z 35004KT 13/09 A3003 RMK A01 T01320085  RH  073%=      5-min Rain = 0
KDO1 240237Z 35004KT 13/09 A3004 RMK A01 T01310086  RH  074%=      5-min Rain = 0
KDO1 240238Z 35003KT 13/09 A3004 RMK A01 T01310087  RH  074%=      5-min Rain = 0
KDO1 240239Z 35003KT 13/09 A3004 RMK A01 T01300086  RH  075%=      5-min Rain = 0
KDO1 240240Z 35003KT 13/09 A3004 RMK A01 T01290085  RH  075%=      5-min Rain = 0
KDO1 240241Z 00003KT 13/09 A3004 RMK A01 T01280086  RH  076%=      5-min Rain = 0
KDO1 240242Z 01003KT 13/08 A3004 RMK A01 T01270084  RH  075%=      5-min Rain = 0
KDO1 240243Z 01004KT 13/08 A3004 RMK A01 T01270083  RH  074%=      5-min Rain = 0
KDO1 240244Z 01004KT 13/08 A3004 RMK A01 T01270081  RH  073%=      5-min Rain = 0
KDO1 240245Z 01004KT 13/08 A3004 RMK A01 T01280080  RH  073%=      5-min Rain = 0
KDO1 240246Z 01005KT 13/08 A3004 RMK A01 T01280079  RH  072%=      5-min Rain = 0
KDO1 240247Z 02004KT 13/08 A3004 RMK A01 T01290078  RH  071%=      5-min Rain = 0
KDO1 240248Z 01005KT 13/08 A3004 RMK A01 T01290078  RH  071%=      5-min Rain = 0
KDO1 240249Z 01005KT 13/08 A3004 RMK A01 T01300078  RH  071%=      5-min Rain = 0
KDO1 240250Z 01005KT 13/08 A3004 RMK A01 T01300078  RH  071%=      5-min Rain = 0
KDO1 240251Z 01006KT 13/08 A3004 RMK A01 T01290079  RH  071%=      5-min Rain = 0
KDO1 240252Z 00005KT 13/08 A3004 RMK A01 T01290079  RH  072%=      5-min Rain = 0
KDO1 240253Z 36005KT 13/08 A3004 RMK A01 T01280081  RH  073%=      5-min Rain = 0
KDO1 240254Z 00006KT 13/08 A3004 RMK A01 T01270081  RH  074%=      5-min Rain = 0
KDO1 240255Z 35006KT 13/08 A3004 RMK A01 T01270082  RH  074%=      5-min Rain = 0
KDO1 240256Z 35005KT 13/08 A3004 RMK A01 T01260083  RH  075%=      5-min Rain = 0
KDO1 240257Z 35006KT 13/08 A3004 RMK A01 T01250084  RH  076%=      5-min Rain = 0
KDO1 240258Z 34006KT 12/08 A3004 RMK A01 T01240083  RH  076%=      5-min Rain = 0
KDO1 240259Z 34006KT 12/08 A3003 RMK A01 T01230083  RH  076%=      5-min Rain = 0
KDO1 240300Z 35006KT 12/08 A3003 RMK A01 T01230082  RH  076%=      5-min Rain = 0
KDO1 240301Z 35006KT 12/08 A3003 RMK A01 T01220081  RH  076%=      5-min Rain = 0
KDO1 240302Z 35005KT 12/08 A3003 RMK A01 T01220080  RH  076%=      5-min Rain = 0
KDO1 240303Z 35005KT 12/08 A3003 RMK A01 T01220080  RH  075%=      5-min Rain = 0
KDO1 240304Z 35005KT 12/08 A3003 RMK A01 T01220079  RH  075%=      5-min Rain = 0
KDO1 240305Z 00004KT 12/08 A3003 RMK A01 T01230079  RH  075%=      5-min Rain = 0
KDO1 240306Z 00003KT 12/08 A3003 RMK A01 T01230079  RH  075%=      5-min Rain = 0
KDO1 240307Z 01003KT 12/08 A3003 RMK A01 T01230080  RH  075%=      5-min Rain = 0
KDO1 240308Z 01003KT 12/08 A3003 RMK A01 T01230080  RH  075%=      5-min Rain = 0
KDO1 240309Z 01002KT 12/08 A3003 RMK A01 T01220080  RH  075%=      5-min Rain = 0
KDO1 240310Z 01001KT 12/08 A3003 RMK A01 T01220079  RH  075%=      5-min Rain = 0
KDO1 240311Z 04001KT 12/08 A3004 RMK A01 T01220078  RH  075%=      5-min Rain = 0
KDO1 240312Z 04001KT 12/08 A3004 RMK A01 T01210078  RH  075%=      5-min Rain = 0
KDO1 240313Z 04002KT 12/08 A3004 RMK A01 T01210078  RH  075%=      5-min Rain = 0
KDO1 240314Z 06002KT 12/08 A3004 RMK A01 T01200077  RH  075%=      5-min Rain = 0
KDO1 240315Z 05002KT 12/08 A3004 RMK A01 T01200077  RH  075%=      5-min Rain = 0
KDO1 240316Z 06002KT 12/08 A3004 RMK A01 T01200077  RH  075%=      5-min Rain = 0
KDO1 240317Z 05002KT 12/08 A3003 RMK A01 T01200077  RH  075%=      5-min Rain = 0
KDO1 240318Z 04002KT 12/08 A3003 RMK A01 T01200077  RH  075%=      5-min Rain = 0
KDO1 240319Z 03003KT 12/08 A3003 RMK A01 T01190077  RH  075%=      5-min Rain = 0
KDO1 240320Z 03003KT 12/08 A3003 RMK A01 T01190078  RH  076%=      5-min Rain = 0
KDO1 240321Z 03004KT 12/08 A3003 RMK A01 T01190078  RH  076%=      5-min Rain = 0
KDO1 240322Z 02003KT 12/08 A3003 RMK A01 T01200078  RH  075%=      5-min Rain = 0
KDO1 240323Z 03004KT 12/08 A3003 RMK A01 T01200077  RH  075%=      5-min Rain = 0
KDO1 240324Z 03004KT 12/08 A3003 RMK A01 T01200076  RH  075%=      5-min Rain = 0
KDO1 240325Z 02004KT 12/08 A3003 RMK A01 T01200077  RH  075%=      5-min Rain = 0
KDO1 240326Z 02004KT 12/08 A3004 RMK A01 T01200077  RH  075%=      5-min Rain = 0
KDO1 240327Z 01004KT 12/08 A3004 RMK A01 T01200076  RH  074%=      5-min Rain = 0
KDO1 240328Z 01004KT 12/08 A3003 RMK A01 T01210077  RH  074%=      5-min Rain = 0
KDO1 240329Z 36005KT 12/08 A3003 RMK A01 T01210077  RH  075%=      5-min Rain = 0
KDO1 240330Z 00005KT 12/08 A3003 RMK A01 T01210077  RH  075%=      5-min Rain = 0
KDO1 240331Z 00005KT 12/08 A3003 RMK A01 T01210078  RH  075%=      5-min Rain = 0
KDO1 240332Z 00005KT 12/08 A3003 RMK A01 T01210079  RH  076%=      5-min Rain = 0
KDO1 240333Z 01007KT 12/08 A3003 RMK A01 T01200078  RH  075%=      5-min Rain = 0
KDO1 240334Z 02007KT 12/08 A3003 RMK A01 T01200077  RH  075%=      5-min Rain = 0
KDO1 240335Z 02007KT 12/08 A3003 RMK A01 T01200076  RH  074%=      5-min Rain = 0
KDO1 240336Z 02007KT 12/08 A3003 RMK A01 T01210076  RH  074%=      5-min Rain = 0
KDO1 240337Z 02006KT 12/08 A3003 RMK A01 T01210076  RH  074%=      5-min Rain = 0
KDO1 240338Z 01007KT 12/08 A3003 RMK A01 T01210076  RH  074%=      5-min Rain = 0
KDO1 240339Z 01006KT 12/08 A3003 RMK A01 T01210077  RH  074%=      5-min Rain = 0
KDO1 240340Z 01006KT 12/08 A3003 RMK A01 T01210077  RH  075%=      5-min Rain = 0
KDO1 240341Z 01006KT 12/08 A3003 RMK A01 T01210078  RH  075%=      5-min Rain = 0
KDO1 240342Z 01006KT 12/08 A3003 RMK A01 T01200079  RH  076%=      5-min Rain = 0
KDO1 240343Z 01006KT 12/08 A3003 RMK A01 T01200079  RH  076%=      5-min Rain = 0
KDO1 240344Z 36006KT 12/08 A3003 RMK A01 T01190079  RH  076%=      5-min Rain = 0
KDO1 240345Z 01006KT 12/08 A3003 RMK A01 T01190079  RH  077%=      5-min Rain = 0
KDO1 240346Z 36006KT 12/08 A3003 RMK A01 T01180079  RH  077%=      5-min Rain = 0
KDO1 240347Z 00007KT 12/08 A3003 RMK A01 T01180079  RH  077%=      5-min Rain = 0
KDO1 240348Z 00007KT 12/08 A3003 RMK A01 T01170079  RH  077%=      5-min Rain = 0
KDO1 240349Z 00007KT 12/08 A3003 RMK A01 T01170078  RH  077%=      5-min Rain = 0
KDO1 240350Z 00007KT 12/08 A3003 RMK A01 T01170077  RH  076%=      5-min Rain = 0
KDO1 240351Z 00007KT 12/08 A3003 RMK A01 T01180076  RH  076%=      5-min Rain = 0
KDO1 240352Z 00008KT 12/08 A3003 RMK A01 T01180075  RH  075%=      5-min Rain = 0
KDO1 240353Z 01007KT 12/07 A3003 RMK A01 T01190073  RH  074%=      5-min Rain = 0
KDO1 240354Z 01007KT 12/07 A3003 RMK A01 T01200073  RH  073%=      5-min Rain = 0
KDO1 240355Z 00007KT 12/07 A3003 RMK A01 T01200072  RH  072%=      5-min Rain = 0
KDO1 240356Z 01007KT 12/07 A3003 RMK A01 T01210072  RH  072%=      5-min Rain = 0
KDO1 240357Z 01007KT 12/07 A3003 RMK A01 T01210073  RH  072%=      5-min Rain = 0
KDO1 240358Z 01006KT 12/07 A3003 RMK A01 T01210072  RH  072%=      5-min Rain = 0
KDO1 240359Z 00005KT 12/07 A3003 RMK A01 T01200072  RH  072%=      5-min Rain = 0
KDO1 240400Z 00006KT 12/07 A3003 RMK A01 T01200073  RH  073%=      5-min Rain = 0
KDO1 240401Z 00006KT 12/07 A3003 RMK A01 T01200074  RH  073%=      5-min Rain = 0
KDO1 240402Z 00006KT 12/07 A3002 RMK A01 T01190074  RH  074%=      5-min Rain = 0
KDO1 240403Z 00006KT 12/07 A3002 RMK A01 T01190073  RH  074%=      5-min Rain = 0
KDO1 240404Z 00006KT 12/07 A3002 RMK A01 T01180074  RH  074%=      5-min Rain = 0
KDO1 240405Z 00006KT 12/08 A3002 RMK A01 T01170075  RH  075%=      5-min Rain = 0
KDO1 240406Z 00006KT 12/08 A3002 RMK A01 T01170075  RH  076%=      5-min Rain = 0
KDO1 240407Z 36006KT 12/08 A3002 RMK A01 T01160075  RH  076%=      5-min Rain = 0
KDO1 240408Z 35006KT 12/08 A3002 RMK A01 T01150075  RH  076%=      5-min Rain = 0
KDO1 240409Z 36005KT 12/08 A3002 RMK A01 T01150075  RH  077%=      5-min Rain = 0
KDO1 240410Z 36005KT 11/08 A3002 RMK A01 T01140075  RH  077%=      5-min Rain = 0
KDO1 240411Z 00005KT 11/08 A3002 RMK A01 T01140075  RH  077%=      5-min Rain = 0
KDO1 240412Z 01005KT 11/08 A3002 RMK A01 T01130075  RH  077%=      5-min Rain = 0
KDO1 240413Z 00004KT 11/07 A3002 RMK A01 T01130074  RH  077%=      5-min Rain = 0
KDO1 240414Z 01004KT 11/07 A3002 RMK A01 T01130074  RH  077%=      5-min Rain = 0
KDO1 240415Z 01005KT 11/07 A3002 RMK A01 T01130073  RH  077%=      5-min Rain = 0
KDO1 240416Z 01005KT 11/07 A3002 RMK A01 T01130072  RH  076%=      5-min Rain = 0
KDO1 240417Z 01005KT 11/07 A3002 RMK A01 T01120072  RH  076%=      5-min Rain = 0
KDO1 240418Z 00005KT 11/07 A3002 RMK A01 T01130072  RH  076%=      5-min Rain = 0
KDO1 240419Z 00005KT 11/07 A3002 RMK A01 T01130072  RH  076%=      5-min Rain = 0
KDO1 240420Z 36005KT 11/07 A3002 RMK A01 T01120073  RH  077%=      5-min Rain = 0
KDO1 240421Z 35005KT 11/07 A3002 RMK A01 T01120074  RH  077%=      5-min Rain = 0
KDO1 240422Z 35005KT 11/07 A3002 RMK A01 T01110074  RH  078%=      5-min Rain = 0
KDO1 240423Z 35005KT 11/07 A3002 RMK A01 T01100074  RH  079%=      5-min Rain = 0
KDO1 240424Z 35005KT 11/07 A3002 RMK A01 T01100074  RH  079%=      5-min Rain = 0
KDO1 240425Z 35005KT 11/07 A3002 RMK A01 T01090074  RH  079%=      5-min Rain = 0
KDO1 240426Z 36005KT 11/07 A3002 RMK A01 T01090074  RH  079%=      5-min Rain = 0
KDO1 240427Z 35005KT 11/07 A3002 RMK A01 T01080074  RH  080%=      5-min Rain = 0
KDO1 240428Z 35005KT 11/07 A3002 RMK A01 T01080074  RH  080%=      5-min Rain = 0
KDO1 240429Z 35005KT 11/08 A3003 RMK A01 T01080075  RH  080%=      5-min Rain = 0
KDO1 240430Z 35005KT 11/08 A3003 RMK A01 T01070075  RH  080%=      5-min Rain = 0
KDO1 240431Z 35005KT 11/08 A3002 RMK A01 T01070075  RH  081%=      5-min Rain = 0
KDO1 240432Z 35006KT 11/08 A3002 RMK A01 T01070076  RH  081%=      5-min Rain = 0
KDO1 240433Z 34007KT 11/08 A3002 RMK A01 T01060076  RH  081%=      5-min Rain = 0
KDO1 240434Z 35007KT 11/08 A3002 RMK A01 T01060075  RH  081%=      5-min Rain = 0
KDO1 240435Z 34008KT 11/07 A3002 RMK A01 T01060073  RH  080%=      5-min Rain = 0
KDO1 240436Z 34008KT 11/07 A3002 RMK A01 T01060072  RH  079%=      5-min Rain = 0
KDO1 240437Z 34008KT 11/07 A3002 RMK A01 T01070071  RH  078%=      5-min Rain = 0
KDO1 240438Z 34009KT 11/07 A3002 RMK A01 T01080070  RH  078%=      5-min Rain = 0
KDO1 240439Z 34009KT 11/07 A3001 RMK A01 T01090070  RH  077%=      5-min Rain = 0
KDO1 240440Z 34008KT 11/07 A3001 RMK A01 T01100069  RH  076%=      5-min Rain = 0
KDO1 240441Z 35008KT 11/07 A3001 RMK A01 T01110068  RH  075%=      5-min Rain = 0
KDO1 240442Z 34008KT 11/07 A3001 RMK A01 T01110069  RH  075%=      5-min Rain = 0
KDO1 240443Z 34008KT 11/07 A3001 RMK A01 T01120070  RH  076%=      5-min Rain = 0
KDO1 240444Z 35009KT 11/07 A3002 RMK A01 T01110068  RH  075%=      5-min Rain = 0
KDO1 240445Z 35007KT 11/07 A3002 RMK A01 T01110068  RH  075%=      5-min Rain = 0
KDO1 240446Z 34008KT 11/07 A3002 RMK A01 T01110068  RH  074%=      5-min Rain = 0
KDO1 240447Z 35007KT 11/07 A3002 RMK A01 T01110069  RH  075%=      5-min Rain = 0
KDO1 240448Z 34008KT 11/07 A3002 RMK A01 T01110067  RH  074%=      5-min Rain = 0
KDO1 240449Z 35007KT 11/07 A3002 RMK A01 T01120066  RH  074%=      5-min Rain = 0
KDO1 240450Z 34006KT 11/07 A3002 RMK A01 T01120067  RH  074%=      5-min Rain = 0
KDO1 240451Z 34008KT 11/07 A3002 RMK A01 T01120067  RH  074%=      5-min Rain = 0
KDO1 240452Z 34007KT 11/07 A3002 RMK A01 T01120067  RH  074%=      5-min Rain = 0
KDO1 240453Z 34007KT 11/07 A3002 RMK A01 T01120066  RH  073%=      5-min Rain = 0
KDO1 240454Z 34007KT 11/07 A3002 RMK A01 T01120066  RH  074%=      5-min Rain = 0
KDO1 240455Z 34007KT 11/07 A3002 RMK A01 T01120068  RH  074%=      5-min Rain = 0
KDO1 240456Z 34008KT 11/07 A3002 RMK A01 T01120068  RH  075%=      5-min Rain = 0
KDO1 240457Z 34008KT 11/07 A3002 RMK A01 T01110069  RH  075%=      5-min Rain = 0
KDO1 240458Z 33007KT 11/07 A3002 RMK A01 T01100069  RH  076%=      5-min Rain = 0
KDO1 240459Z 33008KT 11/07 A3003 RMK A01 T01100068  RH  075%=      5-min Rain = 0

Page generated in 0.0727 seconds.